<?xml version="1.0" encoding="UTF-8" standalone="no" ?>
<gpx xmlns="http://www.topografix.com/GPX/1/1" xmlns:xsi="http://www.w3.org/2001/XMLSchema-instance" xsi:schemaLocation="http://www.topografix.com/GPX/1/1 http://www.topografix.com/GPX/1/1/gpx.xsd" version="1.1" creator="VisuGPX - https://www.visugpx.com">
  <metadata>
    <name>Cyclo - Vers Saint Côme d'Olt</name>
    <desc><![CDATA[Encore une bien belle ballade en vélo en Aveyron]]></desc>
  </metadata>
  <trk>
    <name><![CDATA[04-MAI-19 11:47:03]]></name>
    <trkseg>
      <trkpt lat="44.52558" lon="2.75476">
        <ele>319.3</ele>
        <time>2019-05-04T07:05:16Z</time>
      </trkpt>
      <trkpt lat="44.52564" lon="2.75483">
        <ele>318.33</ele>
        <time>2019-05-04T07:05:21Z</time>
      </trkpt>
      <trkpt lat="44.52565" lon="2.75496">
        <ele>321.22</ele>
        <time>2019-05-04T07:05:38Z</time>
      </trkpt>
      <trkpt lat="44.52568" lon="2.75504">
        <ele>324.58</ele>
        <time>2019-05-04T07:05:46Z</time>
      </trkpt>
      <trkpt lat="44.5257" lon="2.75507">
        <ele>326.5</ele>
        <time>2019-05-04T07:05:52Z</time>
      </trkpt>
      <trkpt lat="44.52586" lon="2.7553">
        <ele>329.39</ele>
        <time>2019-05-04T07:06:03Z</time>
      </trkpt>
      <trkpt lat="44.52569" lon="2.75585">
        <ele>332.27</ele>
        <time>2019-05-04T07:06:16Z</time>
      </trkpt>
      <trkpt lat="44.52539" lon="2.75656">
        <ele>334.2</ele>
        <time>2019-05-04T07:06:32Z</time>
      </trkpt>
      <trkpt lat="44.52504" lon="2.75697">
        <ele>335.64</ele>
        <time>2019-05-04T07:06:44Z</time>
      </trkpt>
      <trkpt lat="44.52465" lon="2.7574">
        <ele>337.08</ele>
        <time>2019-05-04T07:06:57Z</time>
      </trkpt>
      <trkpt lat="44.52429" lon="2.75819">
        <ele>338.04</ele>
        <time>2019-05-04T07:07:14Z</time>
      </trkpt>
      <trkpt lat="44.5242" lon="2.7584">
        <ele>338.04</ele>
        <time>2019-05-04T07:07:18Z</time>
      </trkpt>
      <trkpt lat="44.52418" lon="2.75845">
        <ele>338.04</ele>
        <time>2019-05-04T07:07:19Z</time>
      </trkpt>
      <trkpt lat="44.52394" lon="2.75905">
        <ele>339</ele>
        <time>2019-05-04T07:07:31Z</time>
      </trkpt>
      <trkpt lat="44.52392" lon="2.7591">
        <ele>339</ele>
        <time>2019-05-04T07:07:32Z</time>
      </trkpt>
      <trkpt lat="44.5239" lon="2.75915">
        <ele>339.48</ele>
        <time>2019-05-04T07:07:33Z</time>
      </trkpt>
      <trkpt lat="44.52386" lon="2.75926">
        <ele>339.48</ele>
        <time>2019-05-04T07:07:35Z</time>
      </trkpt>
      <trkpt lat="44.52382" lon="2.75936">
        <ele>339.48</ele>
        <time>2019-05-04T07:07:37Z</time>
      </trkpt>
      <trkpt lat="44.5238" lon="2.75942">
        <ele>339.48</ele>
        <time>2019-05-04T07:07:38Z</time>
      </trkpt>
      <trkpt lat="44.52379" lon="2.75947">
        <ele>339.48</ele>
        <time>2019-05-04T07:07:39Z</time>
      </trkpt>
      <trkpt lat="44.52377" lon="2.75953">
        <ele>339.48</ele>
        <time>2019-05-04T07:07:40Z</time>
      </trkpt>
      <trkpt lat="44.52375" lon="2.75958">
        <ele>339.48</ele>
        <time>2019-05-04T07:07:41Z</time>
      </trkpt>
      <trkpt lat="44.52373" lon="2.75964">
        <ele>339.48</ele>
        <time>2019-05-04T07:07:42Z</time>
      </trkpt>
      <trkpt lat="44.52332" lon="2.76048">
        <ele>340.44</ele>
        <time>2019-05-04T07:07:59Z</time>
      </trkpt>
      <trkpt lat="44.52279" lon="2.76139">
        <ele>341.41</ele>
        <time>2019-05-04T07:08:18Z</time>
      </trkpt>
      <trkpt lat="44.52275" lon="2.76149">
        <ele>341.41</ele>
        <time>2019-05-04T07:08:20Z</time>
      </trkpt>
      <trkpt lat="44.52249" lon="2.76196">
        <ele>341.89</ele>
        <time>2019-05-04T07:08:30Z</time>
      </trkpt>
      <trkpt lat="44.52222" lon="2.76253">
        <ele>343.33</ele>
        <time>2019-05-04T07:08:44Z</time>
      </trkpt>
      <trkpt lat="44.52208" lon="2.76246">
        <ele>343.33</ele>
        <time>2019-05-04T07:08:51Z</time>
      </trkpt>
      <trkpt lat="44.5217" lon="2.76212">
        <ele>344.29</ele>
        <time>2019-05-04T07:09:07Z</time>
      </trkpt>
      <trkpt lat="44.52158" lon="2.76199">
        <ele>344.77</ele>
        <time>2019-05-04T07:09:13Z</time>
      </trkpt>
      <trkpt lat="44.52157" lon="2.76194">
        <ele>344.77</ele>
        <time>2019-05-04T07:09:21Z</time>
      </trkpt>
      <trkpt lat="44.52157" lon="2.762">
        <ele>345.25</ele>
        <time>2019-05-04T07:09:24Z</time>
      </trkpt>
      <trkpt lat="44.5218" lon="2.76228">
        <ele>344.77</ele>
        <time>2019-05-04T07:09:34Z</time>
      </trkpt>
      <trkpt lat="44.52161" lon="2.76278">
        <ele>344.29</ele>
        <time>2019-05-04T07:09:44Z</time>
      </trkpt>
      <trkpt lat="44.5215" lon="2.76303">
        <ele>344.77</ele>
        <time>2019-05-04T07:09:49Z</time>
      </trkpt>
      <trkpt lat="44.52146" lon="2.76313">
        <ele>344.29</ele>
        <time>2019-05-04T07:09:51Z</time>
      </trkpt>
      <trkpt lat="44.52132" lon="2.76337">
        <ele>344.29</ele>
        <time>2019-05-04T07:09:56Z</time>
      </trkpt>
      <trkpt lat="44.5209" lon="2.76386">
        <ele>345.73</ele>
        <time>2019-05-04T07:10:11Z</time>
      </trkpt>
      <trkpt lat="44.52053" lon="2.76412">
        <ele>348.13</ele>
        <time>2019-05-04T07:10:24Z</time>
      </trkpt>
      <trkpt lat="44.52041" lon="2.76417">
        <ele>349.1</ele>
        <time>2019-05-04T07:10:29Z</time>
      </trkpt>
      <trkpt lat="44.52018" lon="2.76431">
        <ele>350.54</ele>
        <time>2019-05-04T07:10:39Z</time>
      </trkpt>
      <trkpt lat="44.51988" lon="2.76452">
        <ele>352.46</ele>
        <time>2019-05-04T07:10:50Z</time>
      </trkpt>
      <trkpt lat="44.51953" lon="2.76477">
        <ele>354.38</ele>
        <time>2019-05-04T07:11:02Z</time>
      </trkpt>
      <trkpt lat="44.51924" lon="2.7651">
        <ele>355.83</ele>
        <time>2019-05-04T07:11:13Z</time>
      </trkpt>
      <trkpt lat="44.519" lon="2.76544">
        <ele>357.75</ele>
        <time>2019-05-04T07:11:24Z</time>
      </trkpt>
      <trkpt lat="44.51861" lon="2.7659">
        <ele>360.15</ele>
        <time>2019-05-04T07:11:39Z</time>
      </trkpt>
      <trkpt lat="44.51818" lon="2.76646">
        <ele>363.04</ele>
        <time>2019-05-04T07:11:57Z</time>
      </trkpt>
      <trkpt lat="44.51774" lon="2.76702">
        <ele>365.92</ele>
        <time>2019-05-04T07:12:15Z</time>
      </trkpt>
      <trkpt lat="44.51735" lon="2.76751">
        <ele>368.32</ele>
        <time>2019-05-04T07:12:31Z</time>
      </trkpt>
      <trkpt lat="44.51692" lon="2.76791">
        <ele>371.21</ele>
        <time>2019-05-04T07:12:47Z</time>
      </trkpt>
      <trkpt lat="44.51652" lon="2.76775">
        <ele>373.61</ele>
        <time>2019-05-04T07:13:00Z</time>
      </trkpt>
      <trkpt lat="44.5165" lon="2.76773">
        <ele>373.61</ele>
        <time>2019-05-04T07:13:01Z</time>
      </trkpt>
      <trkpt lat="44.51642" lon="2.76767">
        <ele>374.09</ele>
        <time>2019-05-04T07:13:06Z</time>
      </trkpt>
      <trkpt lat="44.51645" lon="2.76776">
        <ele>374.09</ele>
        <time>2019-05-04T07:13:14Z</time>
      </trkpt>
      <trkpt lat="44.51676" lon="2.76792">
        <ele>372.65</ele>
        <time>2019-05-04T07:13:26Z</time>
      </trkpt>
      <trkpt lat="44.51701" lon="2.76792">
        <ele>371.21</ele>
        <time>2019-05-04T07:13:39Z</time>
      </trkpt>
      <trkpt lat="44.51722" lon="2.76773">
        <ele>369.76</ele>
        <time>2019-05-04T07:13:52Z</time>
      </trkpt>
      <trkpt lat="44.51723" lon="2.76771">
        <ele>369.28</ele>
        <time>2019-05-04T07:14:03Z</time>
      </trkpt>
      <trkpt lat="44.51727" lon="2.76763">
        <ele>369.28</ele>
        <time>2019-05-04T07:14:22Z</time>
      </trkpt>
      <trkpt lat="44.51763" lon="2.7672">
        <ele>367.36</ele>
        <time>2019-05-04T07:14:33Z</time>
      </trkpt>
      <trkpt lat="44.51812" lon="2.76658">
        <ele>364</ele>
        <time>2019-05-04T07:14:43Z</time>
      </trkpt>
      <trkpt lat="44.51867" lon="2.76589">
        <ele>360.63</ele>
        <time>2019-05-04T07:14:54Z</time>
      </trkpt>
      <trkpt lat="44.51872" lon="2.76582">
        <ele>360.15</ele>
        <time>2019-05-04T07:14:56Z</time>
      </trkpt>
      <trkpt lat="44.51874" lon="2.76593">
        <ele>358.71</ele>
        <time>2019-05-04T07:15:02Z</time>
      </trkpt>
      <trkpt lat="44.51842" lon="2.76638">
        <ele>359.67</ele>
        <time>2019-05-04T07:15:17Z</time>
      </trkpt>
      <trkpt lat="44.51806" lon="2.76688">
        <ele>360.15</ele>
        <time>2019-05-04T07:15:32Z</time>
      </trkpt>
      <trkpt lat="44.51802" lon="2.76696">
        <ele>360.15</ele>
        <time>2019-05-04T07:15:34Z</time>
      </trkpt>
      <trkpt lat="44.51777" lon="2.76734">
        <ele>359.19</ele>
        <time>2019-05-04T07:15:42Z</time>
      </trkpt>
      <trkpt lat="44.51741" lon="2.76781">
        <ele>361.11</ele>
        <time>2019-05-04T07:15:54Z</time>
      </trkpt>
      <trkpt lat="44.51694" lon="2.7682">
        <ele>363.52</ele>
        <time>2019-05-04T07:16:09Z</time>
      </trkpt>
      <trkpt lat="44.51661" lon="2.76861">
        <ele>362.55</ele>
        <time>2019-05-04T07:16:21Z</time>
      </trkpt>
      <trkpt lat="44.51652" lon="2.76884">
        <ele>362.07</ele>
        <time>2019-05-04T07:16:25Z</time>
      </trkpt>
      <trkpt lat="44.51642" lon="2.76918">
        <ele>361.11</ele>
        <time>2019-05-04T07:16:30Z</time>
      </trkpt>
      <trkpt lat="44.51663" lon="2.7701">
        <ele>360.15</ele>
        <time>2019-05-04T07:16:44Z</time>
      </trkpt>
      <trkpt lat="44.51697" lon="2.77086">
        <ele>359.19</ele>
        <time>2019-05-04T07:16:58Z</time>
      </trkpt>
      <trkpt lat="44.51692" lon="2.77098">
        <ele>358.71</ele>
        <time>2019-05-04T07:17:02Z</time>
      </trkpt>
      <trkpt lat="44.51666" lon="2.77126">
        <ele>356.79</ele>
        <time>2019-05-04T07:17:10Z</time>
      </trkpt>
      <trkpt lat="44.51635" lon="2.77131">
        <ele>355.83</ele>
        <time>2019-05-04T07:17:17Z</time>
      </trkpt>
      <trkpt lat="44.51618" lon="2.7713">
        <ele>354.86</ele>
        <time>2019-05-04T07:17:20Z</time>
      </trkpt>
      <trkpt lat="44.51545" lon="2.77152">
        <ele>351.5</ele>
        <time>2019-05-04T07:17:31Z</time>
      </trkpt>
      <trkpt lat="44.51539" lon="2.77156">
        <ele>351.02</ele>
        <time>2019-05-04T07:17:32Z</time>
      </trkpt>
      <trkpt lat="44.51518" lon="2.77178">
        <ele>350.54</ele>
        <time>2019-05-04T07:17:36Z</time>
      </trkpt>
      <trkpt lat="44.5151" lon="2.77194">
        <ele>350.06</ele>
        <time>2019-05-04T07:17:38Z</time>
      </trkpt>
      <trkpt lat="44.51486" lon="2.77218">
        <ele>348.62</ele>
        <time>2019-05-04T07:17:42Z</time>
      </trkpt>
      <trkpt lat="44.51411" lon="2.7727">
        <ele>349.1</ele>
        <time>2019-05-04T07:17:55Z</time>
      </trkpt>
      <trkpt lat="44.51382" lon="2.77297">
        <ele>349.1</ele>
        <time>2019-05-04T07:18:01Z</time>
      </trkpt>
      <trkpt lat="44.51366" lon="2.77317">
        <ele>349.58</ele>
        <time>2019-05-04T07:18:05Z</time>
      </trkpt>
      <trkpt lat="44.5136" lon="2.77328">
        <ele>349.58</ele>
        <time>2019-05-04T07:18:07Z</time>
      </trkpt>
      <trkpt lat="44.51352" lon="2.77354">
        <ele>350.06</ele>
        <time>2019-05-04T07:18:11Z</time>
      </trkpt>
      <trkpt lat="44.51349" lon="2.77389">
        <ele>350.54</ele>
        <time>2019-05-04T07:18:16Z</time>
      </trkpt>
      <trkpt lat="44.51347" lon="2.77402">
        <ele>351.02</ele>
        <time>2019-05-04T07:18:18Z</time>
      </trkpt>
      <trkpt lat="44.51337" lon="2.77424">
        <ele>351.02</ele>
        <time>2019-05-04T07:18:22Z</time>
      </trkpt>
      <trkpt lat="44.51331" lon="2.77432">
        <ele>351.5</ele>
        <time>2019-05-04T07:18:24Z</time>
      </trkpt>
      <trkpt lat="44.51291" lon="2.77467">
        <ele>351.5</ele>
        <time>2019-05-04T07:18:34Z</time>
      </trkpt>
      <trkpt lat="44.51267" lon="2.77486">
        <ele>352.46</ele>
        <time>2019-05-04T07:18:40Z</time>
      </trkpt>
      <trkpt lat="44.51255" lon="2.77493">
        <ele>352.46</ele>
        <time>2019-05-04T07:18:43Z</time>
      </trkpt>
      <trkpt lat="44.51197" lon="2.7751">
        <ele>353.42</ele>
        <time>2019-05-04T07:18:56Z</time>
      </trkpt>
      <trkpt lat="44.51172" lon="2.77526">
        <ele>353.9</ele>
        <time>2019-05-04T07:19:02Z</time>
      </trkpt>
      <trkpt lat="44.51155" lon="2.77533">
        <ele>354.86</ele>
        <time>2019-05-04T07:19:06Z</time>
      </trkpt>
      <trkpt lat="44.51134" lon="2.77539">
        <ele>355.83</ele>
        <time>2019-05-04T07:19:11Z</time>
      </trkpt>
      <trkpt lat="44.51113" lon="2.77544">
        <ele>356.79</ele>
        <time>2019-05-04T07:19:16Z</time>
      </trkpt>
      <trkpt lat="44.51092" lon="2.77561">
        <ele>357.75</ele>
        <time>2019-05-04T07:19:22Z</time>
      </trkpt>
      <trkpt lat="44.51066" lon="2.77568">
        <ele>359.19</ele>
        <time>2019-05-04T07:19:29Z</time>
      </trkpt>
      <trkpt lat="44.51022" lon="2.7754">
        <ele>362.55</ele>
        <time>2019-05-04T07:19:42Z</time>
      </trkpt>
      <trkpt lat="44.50994" lon="2.77512">
        <ele>365.44</ele>
        <time>2019-05-04T07:19:53Z</time>
      </trkpt>
      <trkpt lat="44.50971" lon="2.7749">
        <ele>367.84</ele>
        <time>2019-05-04T07:20:02Z</time>
      </trkpt>
      <trkpt lat="44.50967" lon="2.77488">
        <ele>368.32</ele>
        <time>2019-05-04T07:20:03Z</time>
      </trkpt>
      <trkpt lat="44.50929" lon="2.77508">
        <ele>370.24</ele>
        <time>2019-05-04T07:20:15Z</time>
      </trkpt>
      <trkpt lat="44.50907" lon="2.77509">
        <ele>373.13</ele>
        <time>2019-05-04T07:20:24Z</time>
      </trkpt>
      <trkpt lat="44.50882" lon="2.77508">
        <ele>375.53</ele>
        <time>2019-05-04T07:20:34Z</time>
      </trkpt>
      <trkpt lat="44.50858" lon="2.77515">
        <ele>377.45</ele>
        <time>2019-05-04T07:20:43Z</time>
      </trkpt>
      <trkpt lat="44.50844" lon="2.77522">
        <ele>378.9</ele>
        <time>2019-05-04T07:20:48Z</time>
      </trkpt>
      <trkpt lat="44.50803" lon="2.77544">
        <ele>381.78</ele>
        <time>2019-05-04T07:21:03Z</time>
      </trkpt>
      <trkpt lat="44.50798" lon="2.77547">
        <ele>381.78</ele>
        <time>2019-05-04T07:21:07Z</time>
      </trkpt>
      <trkpt lat="44.508" lon="2.77552">
        <ele>381.78</ele>
        <time>2019-05-04T07:21:11Z</time>
      </trkpt>
      <trkpt lat="44.50803" lon="2.77541">
        <ele>381.78</ele>
        <time>2019-05-04T07:21:22Z</time>
      </trkpt>
      <trkpt lat="44.508" lon="2.77544">
        <ele>381.78</ele>
        <time>2019-05-04T07:21:24Z</time>
      </trkpt>
      <trkpt lat="44.50806" lon="2.77551">
        <ele>382.26</ele>
        <time>2019-05-04T07:21:32Z</time>
      </trkpt>
      <trkpt lat="44.50804" lon="2.77543">
        <ele>381.78</ele>
        <time>2019-05-04T07:21:38Z</time>
      </trkpt>
      <trkpt lat="44.50798" lon="2.77546">
        <ele>381.78</ele>
        <time>2019-05-04T07:21:43Z</time>
      </trkpt>
      <trkpt lat="44.50801" lon="2.77553">
        <ele>382.26</ele>
        <time>2019-05-04T07:21:48Z</time>
      </trkpt>
      <trkpt lat="44.50804" lon="2.77552">
        <ele>382.26</ele>
        <time>2019-05-04T07:21:51Z</time>
      </trkpt>
      <trkpt lat="44.50798" lon="2.77547">
        <ele>381.78</ele>
        <time>2019-05-04T07:22:01Z</time>
      </trkpt>
      <trkpt lat="44.508" lon="2.77552">
        <ele>382.26</ele>
        <time>2019-05-04T07:22:04Z</time>
      </trkpt>
      <trkpt lat="44.50806" lon="2.77552">
        <ele>382.26</ele>
        <time>2019-05-04T07:22:09Z</time>
      </trkpt>
      <trkpt lat="44.50797" lon="2.77546">
        <ele>381.78</ele>
        <time>2019-05-04T07:22:16Z</time>
      </trkpt>
      <trkpt lat="44.50802" lon="2.77552">
        <ele>382.26</ele>
        <time>2019-05-04T07:22:21Z</time>
      </trkpt>
      <trkpt lat="44.50808" lon="2.77549">
        <ele>382.26</ele>
        <time>2019-05-04T07:22:27Z</time>
      </trkpt>
      <trkpt lat="44.50801" lon="2.77543">
        <ele>381.78</ele>
        <time>2019-05-04T07:22:32Z</time>
      </trkpt>
      <trkpt lat="44.50768" lon="2.7757">
        <ele>381.3</ele>
        <time>2019-05-04T07:22:47Z</time>
      </trkpt>
      <trkpt lat="44.50726" lon="2.77596">
        <ele>380.34</ele>
        <time>2019-05-04T07:23:00Z</time>
      </trkpt>
      <trkpt lat="44.50694" lon="2.77611">
        <ele>379.86</ele>
        <time>2019-05-04T07:23:08Z</time>
      </trkpt>
      <trkpt lat="44.50665" lon="2.77634">
        <ele>380.34</ele>
        <time>2019-05-04T07:23:16Z</time>
      </trkpt>
      <trkpt lat="44.50619" lon="2.77676">
        <ele>381.78</ele>
        <time>2019-05-04T07:23:30Z</time>
      </trkpt>
      <trkpt lat="44.50573" lon="2.77711">
        <ele>383.7</ele>
        <time>2019-05-04T07:23:43Z</time>
      </trkpt>
      <trkpt lat="44.50533" lon="2.77741">
        <ele>385.15</ele>
        <time>2019-05-04T07:23:55Z</time>
      </trkpt>
      <trkpt lat="44.50505" lon="2.77784">
        <ele>386.59</ele>
        <time>2019-05-04T07:24:06Z</time>
      </trkpt>
      <trkpt lat="44.50482" lon="2.77816">
        <ele>387.55</ele>
        <time>2019-05-04T07:24:15Z</time>
      </trkpt>
      <trkpt lat="44.50455" lon="2.77857">
        <ele>388.99</ele>
        <time>2019-05-04T07:24:26Z</time>
      </trkpt>
      <trkpt lat="44.5041" lon="2.77888">
        <ele>390.91</ele>
        <time>2019-05-04T07:24:40Z</time>
      </trkpt>
      <trkpt lat="44.50385" lon="2.77879">
        <ele>392.36</ele>
        <time>2019-05-04T07:24:50Z</time>
      </trkpt>
      <trkpt lat="44.50376" lon="2.77872">
        <ele>392.36</ele>
        <time>2019-05-04T07:24:53Z</time>
      </trkpt>
      <trkpt lat="44.50357" lon="2.77866">
        <ele>393.32</ele>
        <time>2019-05-04T07:25:01Z</time>
      </trkpt>
      <trkpt lat="44.50333" lon="2.77866">
        <ele>394.28</ele>
        <time>2019-05-04T07:25:12Z</time>
      </trkpt>
      <trkpt lat="44.50332" lon="2.77866">
        <ele>394.28</ele>
        <time>2019-05-04T07:25:15Z</time>
      </trkpt>
      <trkpt lat="44.50335" lon="2.77864">
        <ele>393.8</ele>
        <time>2019-05-04T07:25:21Z</time>
      </trkpt>
      <trkpt lat="44.50331" lon="2.7786">
        <ele>393.8</ele>
        <time>2019-05-04T07:25:27Z</time>
      </trkpt>
      <trkpt lat="44.50309" lon="2.77876">
        <ele>395.24</ele>
        <time>2019-05-04T07:25:38Z</time>
      </trkpt>
      <trkpt lat="44.50305" lon="2.77881">
        <ele>395.72</ele>
        <time>2019-05-04T07:25:41Z</time>
      </trkpt>
      <trkpt lat="44.50299" lon="2.77894">
        <ele>396.68</ele>
        <time>2019-05-04T07:25:46Z</time>
      </trkpt>
      <trkpt lat="44.50269" lon="2.77909">
        <ele>399.08</ele>
        <time>2019-05-04T07:25:58Z</time>
      </trkpt>
      <trkpt lat="44.50238" lon="2.77916">
        <ele>401.01</ele>
        <time>2019-05-04T07:26:08Z</time>
      </trkpt>
      <trkpt lat="44.5021" lon="2.77906">
        <ele>403.41</ele>
        <time>2019-05-04T07:26:19Z</time>
      </trkpt>
      <trkpt lat="44.5018" lon="2.77906">
        <ele>406.29</ele>
        <time>2019-05-04T07:26:30Z</time>
      </trkpt>
      <trkpt lat="44.5015" lon="2.77924">
        <ele>409.18</ele>
        <time>2019-05-04T07:26:42Z</time>
      </trkpt>
      <trkpt lat="44.50126" lon="2.77954">
        <ele>411.58</ele>
        <time>2019-05-04T07:26:54Z</time>
      </trkpt>
      <trkpt lat="44.50112" lon="2.77992">
        <ele>414.95</ele>
        <time>2019-05-04T07:27:05Z</time>
      </trkpt>
      <trkpt lat="44.50101" lon="2.78028">
        <ele>417.35</ele>
        <time>2019-05-04T07:27:16Z</time>
      </trkpt>
      <trkpt lat="44.50079" lon="2.7806">
        <ele>420.23</ele>
        <time>2019-05-04T07:27:29Z</time>
      </trkpt>
      <trkpt lat="44.50061" lon="2.78074">
        <ele>422.16</ele>
        <time>2019-05-04T07:27:38Z</time>
      </trkpt>
      <trkpt lat="44.50067" lon="2.78084">
        <ele>423.6</ele>
        <time>2019-05-04T07:27:47Z</time>
      </trkpt>
      <trkpt lat="44.50071" lon="2.78082">
        <ele>424.08</ele>
        <time>2019-05-04T07:27:51Z</time>
      </trkpt>
      <trkpt lat="44.50074" lon="2.78082">
        <ele>424.08</ele>
        <time>2019-05-04T07:27:53Z</time>
      </trkpt>
      <trkpt lat="44.50078" lon="2.78079">
        <ele>424.08</ele>
        <time>2019-05-04T07:27:57Z</time>
      </trkpt>
      <trkpt lat="44.50061" lon="2.78083">
        <ele>423.12</ele>
        <time>2019-05-04T07:28:09Z</time>
      </trkpt>
      <trkpt lat="44.50061" lon="2.78077">
        <ele>422.64</ele>
        <time>2019-05-04T07:28:11Z</time>
      </trkpt>
      <trkpt lat="44.50062" lon="2.78069">
        <ele>422.16</ele>
        <time>2019-05-04T07:28:22Z</time>
      </trkpt>
      <trkpt lat="44.50063" lon="2.78068">
        <ele>422.16</ele>
        <time>2019-05-04T07:28:43Z</time>
      </trkpt>
      <trkpt lat="44.5007" lon="2.78064">
        <ele>421.19</ele>
        <time>2019-05-04T07:28:48Z</time>
      </trkpt>
      <trkpt lat="44.50081" lon="2.78056">
        <ele>420.23</ele>
        <time>2019-05-04T07:28:55Z</time>
      </trkpt>
      <trkpt lat="44.50087" lon="2.78047">
        <ele>419.27</ele>
        <time>2019-05-04T07:29:02Z</time>
      </trkpt>
      <trkpt lat="44.50092" lon="2.78034">
        <ele>418.31</ele>
        <time>2019-05-04T07:29:09Z</time>
      </trkpt>
      <trkpt lat="44.50095" lon="2.78026">
        <ele>417.83</ele>
        <time>2019-05-04T07:29:13Z</time>
      </trkpt>
      <trkpt lat="44.50101" lon="2.78016">
        <ele>416.87</ele>
        <time>2019-05-04T07:29:20Z</time>
      </trkpt>
      <trkpt lat="44.50098" lon="2.78022">
        <ele>416.87</ele>
        <time>2019-05-04T07:29:26Z</time>
      </trkpt>
      <trkpt lat="44.50088" lon="2.78047">
        <ele>418.79</ele>
        <time>2019-05-04T07:29:39Z</time>
      </trkpt>
      <trkpt lat="44.50085" lon="2.78049">
        <ele>419.27</ele>
        <time>2019-05-04T07:29:41Z</time>
      </trkpt>
      <trkpt lat="44.50072" lon="2.78063">
        <ele>420.71</ele>
        <time>2019-05-04T07:29:52Z</time>
      </trkpt>
      <trkpt lat="44.50065" lon="2.78065">
        <ele>421.68</ele>
        <time>2019-05-04T07:29:57Z</time>
      </trkpt>
      <trkpt lat="44.50062" lon="2.78065">
        <ele>421.68</ele>
        <time>2019-05-04T07:29:59Z</time>
      </trkpt>
      <trkpt lat="44.5006" lon="2.78084">
        <ele>423.12</ele>
        <time>2019-05-04T07:30:12Z</time>
      </trkpt>
      <trkpt lat="44.50061" lon="2.78084">
        <ele>423.12</ele>
        <time>2019-05-04T07:30:13Z</time>
      </trkpt>
      <trkpt lat="44.50064" lon="2.78085">
        <ele>423.6</ele>
        <time>2019-05-04T07:30:15Z</time>
      </trkpt>
      <trkpt lat="44.50088" lon="2.78071">
        <ele>424.56</ele>
        <time>2019-05-04T07:30:30Z</time>
      </trkpt>
      <trkpt lat="44.50108" lon="2.78073">
        <ele>425.52</ele>
        <time>2019-05-04T07:30:40Z</time>
      </trkpt>
      <trkpt lat="44.50138" lon="2.7809">
        <ele>427.92</ele>
        <time>2019-05-04T07:30:54Z</time>
      </trkpt>
      <trkpt lat="44.50168" lon="2.78096">
        <ele>430.81</ele>
        <time>2019-05-04T07:31:08Z</time>
      </trkpt>
      <trkpt lat="44.50195" lon="2.78092">
        <ele>432.73</ele>
        <time>2019-05-04T07:31:21Z</time>
      </trkpt>
      <trkpt lat="44.50223" lon="2.78103">
        <ele>435.13</ele>
        <time>2019-05-04T07:31:34Z</time>
      </trkpt>
      <trkpt lat="44.50235" lon="2.78128">
        <ele>437.06</ele>
        <time>2019-05-04T07:31:44Z</time>
      </trkpt>
      <trkpt lat="44.50232" lon="2.78152">
        <ele>438.5</ele>
        <time>2019-05-04T07:31:52Z</time>
      </trkpt>
      <trkpt lat="44.5023" lon="2.7816">
        <ele>438.98</ele>
        <time>2019-05-04T07:31:55Z</time>
      </trkpt>
      <trkpt lat="44.50221" lon="2.78189">
        <ele>440.9</ele>
        <time>2019-05-04T07:32:05Z</time>
      </trkpt>
      <trkpt lat="44.50211" lon="2.78233">
        <ele>443.79</ele>
        <time>2019-05-04T07:32:20Z</time>
      </trkpt>
      <trkpt lat="44.50207" lon="2.78268">
        <ele>445.71</ele>
        <time>2019-05-04T07:32:32Z</time>
      </trkpt>
      <trkpt lat="44.50206" lon="2.78282">
        <ele>446.67</ele>
        <time>2019-05-04T07:32:37Z</time>
      </trkpt>
      <trkpt lat="44.50206" lon="2.78297">
        <ele>447.63</ele>
        <time>2019-05-04T07:32:42Z</time>
      </trkpt>
      <trkpt lat="44.50203" lon="2.78313">
        <ele>449.07</ele>
        <time>2019-05-04T07:32:48Z</time>
      </trkpt>
      <trkpt lat="44.50202" lon="2.78327">
        <ele>450.03</ele>
        <time>2019-05-04T07:32:53Z</time>
      </trkpt>
      <trkpt lat="44.50196" lon="2.78362">
        <ele>451.96</ele>
        <time>2019-05-04T07:33:05Z</time>
      </trkpt>
      <trkpt lat="44.50188" lon="2.784">
        <ele>454.36</ele>
        <time>2019-05-04T07:33:18Z</time>
      </trkpt>
      <trkpt lat="44.50172" lon="2.78447">
        <ele>457.24</ele>
        <time>2019-05-04T07:33:34Z</time>
      </trkpt>
      <trkpt lat="44.50158" lon="2.78479">
        <ele>459.65</ele>
        <time>2019-05-04T07:33:46Z</time>
      </trkpt>
      <trkpt lat="44.50153" lon="2.78488">
        <ele>460.61</ele>
        <time>2019-05-04T07:33:50Z</time>
      </trkpt>
      <trkpt lat="44.50148" lon="2.78499">
        <ele>461.09</ele>
        <time>2019-05-04T07:33:54Z</time>
      </trkpt>
      <trkpt lat="44.50139" lon="2.78516">
        <ele>462.53</ele>
        <time>2019-05-04T07:34:01Z</time>
      </trkpt>
      <trkpt lat="44.50131" lon="2.78534">
        <ele>463.97</ele>
        <time>2019-05-04T07:34:07Z</time>
      </trkpt>
      <trkpt lat="44.50115" lon="2.78562">
        <ele>465.9</ele>
        <time>2019-05-04T07:34:18Z</time>
      </trkpt>
      <trkpt lat="44.50112" lon="2.78567">
        <ele>466.38</ele>
        <time>2019-05-04T07:34:20Z</time>
      </trkpt>
      <trkpt lat="44.50107" lon="2.78581">
        <ele>466.86</ele>
        <time>2019-05-04T07:34:25Z</time>
      </trkpt>
      <trkpt lat="44.50095" lon="2.78602">
        <ele>468.78</ele>
        <time>2019-05-04T07:34:33Z</time>
      </trkpt>
      <trkpt lat="44.50083" lon="2.78626">
        <ele>470.22</ele>
        <time>2019-05-04T07:34:41Z</time>
      </trkpt>
      <trkpt lat="44.50079" lon="2.78638">
        <ele>470.7</ele>
        <time>2019-05-04T07:34:45Z</time>
      </trkpt>
      <trkpt lat="44.5007" lon="2.7869">
        <ele>474.07</ele>
        <time>2019-05-04T07:34:59Z</time>
      </trkpt>
      <trkpt lat="44.50075" lon="2.78736">
        <ele>476.47</ele>
        <time>2019-05-04T07:35:12Z</time>
      </trkpt>
      <trkpt lat="44.50075" lon="2.78785">
        <ele>479.35</ele>
        <time>2019-05-04T07:35:25Z</time>
      </trkpt>
      <trkpt lat="44.50072" lon="2.78834">
        <ele>482.24</ele>
        <time>2019-05-04T07:35:39Z</time>
      </trkpt>
      <trkpt lat="44.50079" lon="2.78875">
        <ele>484.64</ele>
        <time>2019-05-04T07:35:51Z</time>
      </trkpt>
      <trkpt lat="44.50098" lon="2.78914">
        <ele>487.53</ele>
        <time>2019-05-04T07:36:05Z</time>
      </trkpt>
      <trkpt lat="44.50101" lon="2.7896">
        <ele>490.41</ele>
        <time>2019-05-04T07:36:19Z</time>
      </trkpt>
      <trkpt lat="44.50081" lon="2.78987">
        <ele>493.29</ele>
        <time>2019-05-04T07:36:31Z</time>
      </trkpt>
      <trkpt lat="44.50052" lon="2.79001">
        <ele>496.18</ele>
        <time>2019-05-04T07:36:45Z</time>
      </trkpt>
      <trkpt lat="44.50022" lon="2.79015">
        <ele>499.06</ele>
        <time>2019-05-04T07:36:58Z</time>
      </trkpt>
      <trkpt lat="44.49987" lon="2.79031">
        <ele>502.43</ele>
        <time>2019-05-04T07:37:14Z</time>
      </trkpt>
      <trkpt lat="44.49962" lon="2.79029">
        <ele>505.31</ele>
        <time>2019-05-04T07:37:25Z</time>
      </trkpt>
      <trkpt lat="44.49941" lon="2.79011">
        <ele>507.23</ele>
        <time>2019-05-04T07:37:37Z</time>
      </trkpt>
      <trkpt lat="44.49915" lon="2.79019">
        <ele>510.12</ele>
        <time>2019-05-04T07:37:48Z</time>
      </trkpt>
      <trkpt lat="44.49912" lon="2.79024">
        <ele>510.6</ele>
        <time>2019-05-04T07:37:50Z</time>
      </trkpt>
      <trkpt lat="44.49895" lon="2.79073">
        <ele>513.96</ele>
        <time>2019-05-04T07:38:05Z</time>
      </trkpt>
      <trkpt lat="44.49882" lon="2.79122">
        <ele>516.85</ele>
        <time>2019-05-04T07:38:19Z</time>
      </trkpt>
      <trkpt lat="44.49887" lon="2.79164">
        <ele>518.29</ele>
        <time>2019-05-04T07:38:31Z</time>
      </trkpt>
      <trkpt lat="44.49908" lon="2.79215">
        <ele>519.25</ele>
        <time>2019-05-04T07:38:45Z</time>
      </trkpt>
      <trkpt lat="44.49912" lon="2.79272">
        <ele>520.69</ele>
        <time>2019-05-04T07:39:00Z</time>
      </trkpt>
      <trkpt lat="44.49884" lon="2.79307">
        <ele>522.13</ele>
        <time>2019-05-04T07:39:14Z</time>
      </trkpt>
      <trkpt lat="44.49849" lon="2.7932">
        <ele>524.54</ele>
        <time>2019-05-04T07:39:28Z</time>
      </trkpt>
      <trkpt lat="44.4982" lon="2.79302">
        <ele>526.46</ele>
        <time>2019-05-04T07:39:42Z</time>
      </trkpt>
      <trkpt lat="44.4981" lon="2.79293">
        <ele>527.42</ele>
        <time>2019-05-04T07:39:49Z</time>
      </trkpt>
      <trkpt lat="44.49811" lon="2.79298">
        <ele>527.9</ele>
        <time>2019-05-04T07:39:54Z</time>
      </trkpt>
      <trkpt lat="44.49836" lon="2.79318">
        <ele>525.98</ele>
        <time>2019-05-04T07:40:02Z</time>
      </trkpt>
      <trkpt lat="44.49844" lon="2.79321">
        <ele>525.5</ele>
        <time>2019-05-04T07:40:04Z</time>
      </trkpt>
      <trkpt lat="44.49884" lon="2.79308">
        <ele>523.09</ele>
        <time>2019-05-04T07:40:11Z</time>
      </trkpt>
      <trkpt lat="44.49908" lon="2.79284">
        <ele>521.65</ele>
        <time>2019-05-04T07:40:16Z</time>
      </trkpt>
      <trkpt lat="44.49911" lon="2.79219">
        <ele>520.21</ele>
        <time>2019-05-04T07:40:24Z</time>
      </trkpt>
      <trkpt lat="44.49886" lon="2.79153">
        <ele>518.29</ele>
        <time>2019-05-04T07:40:33Z</time>
      </trkpt>
      <trkpt lat="44.49887" lon="2.79107">
        <ele>516.85</ele>
        <time>2019-05-04T07:40:39Z</time>
      </trkpt>
      <trkpt lat="44.49903" lon="2.79055">
        <ele>513.48</ele>
        <time>2019-05-04T07:40:45Z</time>
      </trkpt>
      <trkpt lat="44.49908" lon="2.7904">
        <ele>512.52</ele>
        <time>2019-05-04T07:40:47Z</time>
      </trkpt>
      <trkpt lat="44.49933" lon="2.79007">
        <ele>508.67</ele>
        <time>2019-05-04T07:40:54Z</time>
      </trkpt>
      <trkpt lat="44.49946" lon="2.79015">
        <ele>507.23</ele>
        <time>2019-05-04T07:40:57Z</time>
      </trkpt>
      <trkpt lat="44.4998" lon="2.79033">
        <ele>503.39</ele>
        <time>2019-05-04T07:41:08Z</time>
      </trkpt>
      <trkpt lat="44.49983" lon="2.79031">
        <ele>502.91</ele>
        <time>2019-05-04T07:41:17Z</time>
      </trkpt>
      <trkpt lat="44.49983" lon="2.79031">
        <ele>502.43</ele>
        <time>2019-05-04T07:41:40Z</time>
      </trkpt>
      <trkpt lat="44.49983" lon="2.79032">
        <ele>502.43</ele>
        <time>2019-05-04T07:42:04Z</time>
      </trkpt>
      <trkpt lat="44.49983" lon="2.79032">
        <ele>502.43</ele>
        <time>2019-05-04T07:42:09Z</time>
      </trkpt>
      <trkpt lat="44.4998" lon="2.79032">
        <ele>502.43</ele>
        <time>2019-05-04T07:42:12Z</time>
      </trkpt>
      <trkpt lat="44.49973" lon="2.79032">
        <ele>503.39</ele>
        <time>2019-05-04T07:42:17Z</time>
      </trkpt>
      <trkpt lat="44.49952" lon="2.79021">
        <ele>505.31</ele>
        <time>2019-05-04T07:42:29Z</time>
      </trkpt>
      <trkpt lat="44.49925" lon="2.7901">
        <ele>508.19</ele>
        <time>2019-05-04T07:42:42Z</time>
      </trkpt>
      <trkpt lat="44.49906" lon="2.79035">
        <ele>511.08</ele>
        <time>2019-05-04T07:42:54Z</time>
      </trkpt>
      <trkpt lat="44.49893" lon="2.7908">
        <ele>513.96</ele>
        <time>2019-05-04T07:43:09Z</time>
      </trkpt>
      <trkpt lat="44.49879" lon="2.79128">
        <ele>516.85</ele>
        <time>2019-05-04T07:43:25Z</time>
      </trkpt>
      <trkpt lat="44.49889" lon="2.79172">
        <ele>517.81</ele>
        <time>2019-05-04T07:43:38Z</time>
      </trkpt>
      <trkpt lat="44.49911" lon="2.79223">
        <ele>518.77</ele>
        <time>2019-05-04T07:43:53Z</time>
      </trkpt>
      <trkpt lat="44.4991" lon="2.79278">
        <ele>520.21</ele>
        <time>2019-05-04T07:44:07Z</time>
      </trkpt>
      <trkpt lat="44.49875" lon="2.79312">
        <ele>522.61</ele>
        <time>2019-05-04T07:44:23Z</time>
      </trkpt>
      <trkpt lat="44.49837" lon="2.79317">
        <ele>525.02</ele>
        <time>2019-05-04T07:44:38Z</time>
      </trkpt>
      <trkpt lat="44.49801" lon="2.79288">
        <ele>527.9</ele>
        <time>2019-05-04T07:44:54Z</time>
      </trkpt>
      <trkpt lat="44.49769" lon="2.79266">
        <ele>530.79</ele>
        <time>2019-05-04T07:45:09Z</time>
      </trkpt>
      <trkpt lat="44.49748" lon="2.79267">
        <ele>532.71</ele>
        <time>2019-05-04T07:45:19Z</time>
      </trkpt>
      <trkpt lat="44.49737" lon="2.79283">
        <ele>533.67</ele>
        <time>2019-05-04T07:45:25Z</time>
      </trkpt>
      <trkpt lat="44.49726" lon="2.79336">
        <ele>536.07</ele>
        <time>2019-05-04T07:45:40Z</time>
      </trkpt>
      <trkpt lat="44.49716" lon="2.7938">
        <ele>538.48</ele>
        <time>2019-05-04T07:45:53Z</time>
      </trkpt>
      <trkpt lat="44.49706" lon="2.79418">
        <ele>540.88</ele>
        <time>2019-05-04T07:46:05Z</time>
      </trkpt>
      <trkpt lat="44.49686" lon="2.79459">
        <ele>543.28</ele>
        <time>2019-05-04T07:46:19Z</time>
      </trkpt>
      <trkpt lat="44.4968" lon="2.79492">
        <ele>545.69</ele>
        <time>2019-05-04T07:46:30Z</time>
      </trkpt>
      <trkpt lat="44.49693" lon="2.79533">
        <ele>548.57</ele>
        <time>2019-05-04T07:46:44Z</time>
      </trkpt>
      <trkpt lat="44.49695" lon="2.79544">
        <ele>548.57</ele>
        <time>2019-05-04T07:46:47Z</time>
      </trkpt>
      <trkpt lat="44.49694" lon="2.79562">
        <ele>549.53</ele>
        <time>2019-05-04T07:46:53Z</time>
      </trkpt>
      <trkpt lat="44.49684" lon="2.79601">
        <ele>552.41</ele>
        <time>2019-05-04T07:47:06Z</time>
      </trkpt>
      <trkpt lat="44.49673" lon="2.79641">
        <ele>554.82</ele>
        <time>2019-05-04T07:47:18Z</time>
      </trkpt>
      <trkpt lat="44.49664" lon="2.79686">
        <ele>556.74</ele>
        <time>2019-05-04T07:47:31Z</time>
      </trkpt>
      <trkpt lat="44.49664" lon="2.79689">
        <ele>556.74</ele>
        <time>2019-05-04T07:47:32Z</time>
      </trkpt>
      <trkpt lat="44.49652" lon="2.7973">
        <ele>559.14</ele>
        <time>2019-05-04T07:47:46Z</time>
      </trkpt>
      <trkpt lat="44.49646" lon="2.79745">
        <ele>560.11</ele>
        <time>2019-05-04T07:47:57Z</time>
      </trkpt>
      <trkpt lat="44.49647" lon="2.79744">
        <ele>560.11</ele>
        <time>2019-05-04T07:47:58Z</time>
      </trkpt>
      <trkpt lat="44.4965" lon="2.7974">
        <ele>559.14</ele>
        <time>2019-05-04T07:48:10Z</time>
      </trkpt>
      <trkpt lat="44.4965" lon="2.7974">
        <ele>559.14</ele>
        <time>2019-05-04T07:48:38Z</time>
      </trkpt>
      <trkpt lat="44.4965" lon="2.7974">
        <ele>558.66</ele>
        <time>2019-05-04T07:49:11Z</time>
      </trkpt>
      <trkpt lat="44.4965" lon="2.79742">
        <ele>558.18</ele>
        <time>2019-05-04T07:49:42Z</time>
      </trkpt>
      <trkpt lat="44.49649" lon="2.79742">
        <ele>558.18</ele>
        <time>2019-05-04T07:50:04Z</time>
      </trkpt>
      <trkpt lat="44.49649" lon="2.79742">
        <ele>558.18</ele>
        <time>2019-05-04T07:50:31Z</time>
      </trkpt>
      <trkpt lat="44.49649" lon="2.79741">
        <ele>557.7</ele>
        <time>2019-05-04T07:50:57Z</time>
      </trkpt>
      <trkpt lat="44.49649" lon="2.79742">
        <ele>557.7</ele>
        <time>2019-05-04T07:51:21Z</time>
      </trkpt>
      <trkpt lat="44.49647" lon="2.79747">
        <ele>557.22</ele>
        <time>2019-05-04T07:51:36Z</time>
      </trkpt>
      <trkpt lat="44.49644" lon="2.79761">
        <ele>558.18</ele>
        <time>2019-05-04T07:51:44Z</time>
      </trkpt>
      <trkpt lat="44.49626" lon="2.7978">
        <ele>559.62</ele>
        <time>2019-05-04T07:51:56Z</time>
      </trkpt>
      <trkpt lat="44.49611" lon="2.79798">
        <ele>561.07</ele>
        <time>2019-05-04T07:52:06Z</time>
      </trkpt>
      <trkpt lat="44.49601" lon="2.79827">
        <ele>562.51</ele>
        <time>2019-05-04T07:52:18Z</time>
      </trkpt>
      <trkpt lat="44.49612" lon="2.79875">
        <ele>563.47</ele>
        <time>2019-05-04T07:52:32Z</time>
      </trkpt>
      <trkpt lat="44.49605" lon="2.79872">
        <ele>563.95</ele>
        <time>2019-05-04T07:52:40Z</time>
      </trkpt>
      <trkpt lat="44.49594" lon="2.79838">
        <ele>566.35</ele>
        <time>2019-05-04T07:52:55Z</time>
      </trkpt>
      <trkpt lat="44.49591" lon="2.79832">
        <ele>566.83</ele>
        <time>2019-05-04T07:52:58Z</time>
      </trkpt>
      <trkpt lat="44.49586" lon="2.79812">
        <ele>568.28</ele>
        <time>2019-05-04T07:53:06Z</time>
      </trkpt>
      <trkpt lat="44.49578" lon="2.7978">
        <ele>570.68</ele>
        <time>2019-05-04T07:53:18Z</time>
      </trkpt>
      <trkpt lat="44.49576" lon="2.7977">
        <ele>571.16</ele>
        <time>2019-05-04T07:53:22Z</time>
      </trkpt>
      <trkpt lat="44.49574" lon="2.79771">
        <ele>571.16</ele>
        <time>2019-05-04T07:53:33Z</time>
      </trkpt>
      <trkpt lat="44.49574" lon="2.79771">
        <ele>571.16</ele>
        <time>2019-05-04T07:53:48Z</time>
      </trkpt>
      <trkpt lat="44.49574" lon="2.79763">
        <ele>571.64</ele>
        <time>2019-05-04T07:53:56Z</time>
      </trkpt>
      <trkpt lat="44.49569" lon="2.79739">
        <ele>573.08</ele>
        <time>2019-05-04T07:54:08Z</time>
      </trkpt>
      <trkpt lat="44.49566" lon="2.79698">
        <ele>575.49</ele>
        <time>2019-05-04T07:54:23Z</time>
      </trkpt>
      <trkpt lat="44.49555" lon="2.79656">
        <ele>577.89</ele>
        <time>2019-05-04T07:54:38Z</time>
      </trkpt>
      <trkpt lat="44.49543" lon="2.79615">
        <ele>580.77</ele>
        <time>2019-05-04T07:54:53Z</time>
      </trkpt>
      <trkpt lat="44.49531" lon="2.79575">
        <ele>583.66</ele>
        <time>2019-05-04T07:55:07Z</time>
      </trkpt>
      <trkpt lat="44.49511" lon="2.79541">
        <ele>587.02</ele>
        <time>2019-05-04T07:55:21Z</time>
      </trkpt>
      <trkpt lat="44.49482" lon="2.79523">
        <ele>589.91</ele>
        <time>2019-05-04T07:55:35Z</time>
      </trkpt>
      <trkpt lat="44.49448" lon="2.79498">
        <ele>592.31</ele>
        <time>2019-05-04T07:55:50Z</time>
      </trkpt>
      <trkpt lat="44.49433" lon="2.79459">
        <ele>593.27</ele>
        <time>2019-05-04T07:56:03Z</time>
      </trkpt>
      <trkpt lat="44.49431" lon="2.794">
        <ele>594.23</ele>
        <time>2019-05-04T07:56:17Z</time>
      </trkpt>
      <trkpt lat="44.49431" lon="2.79332">
        <ele>595.19</ele>
        <time>2019-05-04T07:56:33Z</time>
      </trkpt>
      <trkpt lat="44.49441" lon="2.79266">
        <ele>598.08</ele>
        <time>2019-05-04T07:56:50Z</time>
      </trkpt>
      <trkpt lat="44.49452" lon="2.7921">
        <ele>600</ele>
        <time>2019-05-04T07:57:04Z</time>
      </trkpt>
      <trkpt lat="44.49458" lon="2.79161">
        <ele>601.44</ele>
        <time>2019-05-04T07:57:16Z</time>
      </trkpt>
      <trkpt lat="44.49465" lon="2.79107">
        <ele>603.85</ele>
        <time>2019-05-04T07:57:29Z</time>
      </trkpt>
      <trkpt lat="44.49475" lon="2.7904">
        <ele>606.25</ele>
        <time>2019-05-04T07:57:45Z</time>
      </trkpt>
      <trkpt lat="44.49486" lon="2.7899">
        <ele>608.17</ele>
        <time>2019-05-04T07:57:57Z</time>
      </trkpt>
      <trkpt lat="44.49499" lon="2.78943">
        <ele>610.09</ele>
        <time>2019-05-04T07:58:08Z</time>
      </trkpt>
      <trkpt lat="44.49501" lon="2.78939">
        <ele>610.09</ele>
        <time>2019-05-04T07:58:09Z</time>
      </trkpt>
      <trkpt lat="44.49504" lon="2.78931">
        <ele>610.09</ele>
        <time>2019-05-04T07:58:11Z</time>
      </trkpt>
      <trkpt lat="44.49516" lon="2.78895">
        <ele>611.54</ele>
        <time>2019-05-04T07:58:20Z</time>
      </trkpt>
      <trkpt lat="44.49533" lon="2.78837">
        <ele>613.94</ele>
        <time>2019-05-04T07:58:34Z</time>
      </trkpt>
      <trkpt lat="44.49533" lon="2.78832">
        <ele>614.42</ele>
        <time>2019-05-04T07:58:35Z</time>
      </trkpt>
      <trkpt lat="44.49532" lon="2.78815">
        <ele>614.42</ele>
        <time>2019-05-04T07:58:40Z</time>
      </trkpt>
      <trkpt lat="44.4952" lon="2.7876">
        <ele>615.38</ele>
        <time>2019-05-04T07:58:53Z</time>
      </trkpt>
      <trkpt lat="44.49481" lon="2.78709">
        <ele>617.78</ele>
        <time>2019-05-04T07:59:10Z</time>
      </trkpt>
      <trkpt lat="44.49453" lon="2.78668">
        <ele>619.23</ele>
        <time>2019-05-04T07:59:24Z</time>
      </trkpt>
      <trkpt lat="44.49433" lon="2.7863">
        <ele>620.67</ele>
        <time>2019-05-04T07:59:37Z</time>
      </trkpt>
      <trkpt lat="44.49429" lon="2.78624">
        <ele>620.67</ele>
        <time>2019-05-04T07:59:40Z</time>
      </trkpt>
      <trkpt lat="44.49424" lon="2.78611">
        <ele>621.15</ele>
        <time>2019-05-04T07:59:45Z</time>
      </trkpt>
      <trkpt lat="44.49416" lon="2.78593">
        <ele>621.15</ele>
        <time>2019-05-04T07:59:52Z</time>
      </trkpt>
      <trkpt lat="44.49419" lon="2.78605">
        <ele>621.15</ele>
        <time>2019-05-04T08:00:00Z</time>
      </trkpt>
      <trkpt lat="44.49437" lon="2.78643">
        <ele>620.67</ele>
        <time>2019-05-04T08:00:14Z</time>
      </trkpt>
      <trkpt lat="44.49456" lon="2.78673">
        <ele>620.19</ele>
        <time>2019-05-04T08:00:26Z</time>
      </trkpt>
      <trkpt lat="44.49472" lon="2.78699">
        <ele>619.71</ele>
        <time>2019-05-04T08:00:38Z</time>
      </trkpt>
      <trkpt lat="44.49487" lon="2.78721">
        <ele>618.26</ele>
        <time>2019-05-04T08:00:50Z</time>
      </trkpt>
      <trkpt lat="44.49495" lon="2.78729">
        <ele>617.78</ele>
        <time>2019-05-04T08:00:58Z</time>
      </trkpt>
      <trkpt lat="44.49483" lon="2.78713">
        <ele>618.75</ele>
        <time>2019-05-04T08:01:07Z</time>
      </trkpt>
      <trkpt lat="44.49454" lon="2.78669">
        <ele>620.19</ele>
        <time>2019-05-04T08:01:24Z</time>
      </trkpt>
      <trkpt lat="44.49425" lon="2.78613">
        <ele>621.15</ele>
        <time>2019-05-04T08:01:41Z</time>
      </trkpt>
      <trkpt lat="44.49406" lon="2.7857">
        <ele>622.11</ele>
        <time>2019-05-04T08:01:53Z</time>
      </trkpt>
      <trkpt lat="44.49392" lon="2.78539">
        <ele>622.59</ele>
        <time>2019-05-04T08:02:02Z</time>
      </trkpt>
      <trkpt lat="44.49387" lon="2.78525">
        <ele>623.55</ele>
        <time>2019-05-04T08:02:08Z</time>
      </trkpt>
      <trkpt lat="44.49386" lon="2.78512">
        <ele>624.51</ele>
        <time>2019-05-04T08:02:14Z</time>
      </trkpt>
      <trkpt lat="44.49376" lon="2.78473">
        <ele>625.96</ele>
        <time>2019-05-04T08:02:23Z</time>
      </trkpt>
      <trkpt lat="44.49372" lon="2.78448">
        <ele>626.92</ele>
        <time>2019-05-04T08:02:30Z</time>
      </trkpt>
      <trkpt lat="44.49359" lon="2.78404">
        <ele>628.36</ele>
        <time>2019-05-04T08:02:39Z</time>
      </trkpt>
      <trkpt lat="44.49351" lon="2.78365">
        <ele>630.28</ele>
        <time>2019-05-04T08:02:49Z</time>
      </trkpt>
      <trkpt lat="44.4935" lon="2.78361">
        <ele>630.28</ele>
        <time>2019-05-04T08:02:50Z</time>
      </trkpt>
      <trkpt lat="44.49348" lon="2.78349">
        <ele>630.76</ele>
        <time>2019-05-04T08:02:53Z</time>
      </trkpt>
      <trkpt lat="44.49342" lon="2.78328">
        <ele>631.24</ele>
        <time>2019-05-04T08:02:58Z</time>
      </trkpt>
      <trkpt lat="44.49325" lon="2.78271">
        <ele>633.17</ele>
        <time>2019-05-04T08:03:09Z</time>
      </trkpt>
      <trkpt lat="44.4931" lon="2.78225">
        <ele>635.09</ele>
        <time>2019-05-04T08:03:18Z</time>
      </trkpt>
      <trkpt lat="44.49303" lon="2.78203">
        <ele>635.57</ele>
        <time>2019-05-04T08:03:22Z</time>
      </trkpt>
      <trkpt lat="44.49285" lon="2.78147">
        <ele>637.49</ele>
        <time>2019-05-04T08:03:34Z</time>
      </trkpt>
      <trkpt lat="44.49273" lon="2.78105">
        <ele>638.93</ele>
        <time>2019-05-04T08:03:44Z</time>
      </trkpt>
      <trkpt lat="44.49253" lon="2.78043">
        <ele>641.34</ele>
        <time>2019-05-04T08:03:58Z</time>
      </trkpt>
      <trkpt lat="44.49239" lon="2.78015">
        <ele>643.26</ele>
        <time>2019-05-04T08:04:07Z</time>
      </trkpt>
      <trkpt lat="44.49237" lon="2.78013">
        <ele>643.26</ele>
        <time>2019-05-04T08:04:08Z</time>
      </trkpt>
      <trkpt lat="44.49225" lon="2.7799">
        <ele>644.22</ele>
        <time>2019-05-04T08:04:13Z</time>
      </trkpt>
      <trkpt lat="44.49195" lon="2.77942">
        <ele>646.14</ele>
        <time>2019-05-04T08:04:24Z</time>
      </trkpt>
      <trkpt lat="44.49155" lon="2.77912">
        <ele>648.55</ele>
        <time>2019-05-04T08:04:38Z</time>
      </trkpt>
      <trkpt lat="44.49142" lon="2.77907">
        <ele>649.03</ele>
        <time>2019-05-04T08:04:42Z</time>
      </trkpt>
      <trkpt lat="44.49104" lon="2.77898">
        <ele>651.43</ele>
        <time>2019-05-04T08:04:54Z</time>
      </trkpt>
      <trkpt lat="44.49067" lon="2.77886">
        <ele>653.35</ele>
        <time>2019-05-04T08:05:05Z</time>
      </trkpt>
      <trkpt lat="44.49014" lon="2.77892">
        <ele>656.24</ele>
        <time>2019-05-04T08:05:20Z</time>
      </trkpt>
      <trkpt lat="44.48973" lon="2.77916">
        <ele>658.64</ele>
        <time>2019-05-04T08:05:33Z</time>
      </trkpt>
      <trkpt lat="44.48931" lon="2.77939">
        <ele>661.52</ele>
        <time>2019-05-04T08:05:46Z</time>
      </trkpt>
      <trkpt lat="44.48892" lon="2.77937">
        <ele>663.45</ele>
        <time>2019-05-04T08:05:57Z</time>
      </trkpt>
      <trkpt lat="44.48837" lon="2.77927">
        <ele>666.33</ele>
        <time>2019-05-04T08:06:12Z</time>
      </trkpt>
      <trkpt lat="44.48789" lon="2.77926">
        <ele>668.73</ele>
        <time>2019-05-04T08:06:26Z</time>
      </trkpt>
      <trkpt lat="44.48744" lon="2.77915">
        <ele>671.62</ele>
        <time>2019-05-04T08:06:39Z</time>
      </trkpt>
      <trkpt lat="44.48707" lon="2.77892">
        <ele>666.33</ele>
        <time>2019-05-04T08:06:51Z</time>
      </trkpt>
      <trkpt lat="44.48705" lon="2.77891">
        <ele>672.58</ele>
        <time>2019-05-04T08:06:52Z</time>
      </trkpt>
      <trkpt lat="44.48701" lon="2.77887">
        <ele>674.5</ele>
        <time>2019-05-04T08:06:54Z</time>
      </trkpt>
      <trkpt lat="44.48689" lon="2.77878">
        <ele>674.98</ele>
        <time>2019-05-04T08:07:00Z</time>
      </trkpt>
      <trkpt lat="44.48663" lon="2.77861">
        <ele>674.98</ele>
        <time>2019-05-04T08:07:14Z</time>
      </trkpt>
      <trkpt lat="44.48654" lon="2.77855">
        <ele>675.46</ele>
        <time>2019-05-04T08:07:19Z</time>
      </trkpt>
      <trkpt lat="44.48662" lon="2.77859">
        <ele>675.46</ele>
        <time>2019-05-04T08:07:27Z</time>
      </trkpt>
      <trkpt lat="44.48664" lon="2.77859">
        <ele>675.46</ele>
        <time>2019-05-04T08:07:35Z</time>
      </trkpt>
      <trkpt lat="44.48667" lon="2.77861">
        <ele>675.46</ele>
        <time>2019-05-04T08:07:39Z</time>
      </trkpt>
      <trkpt lat="44.48687" lon="2.77879">
        <ele>675.46</ele>
        <time>2019-05-04T08:07:55Z</time>
      </trkpt>
      <trkpt lat="44.48689" lon="2.77879">
        <ele>671.62</ele>
        <time>2019-05-04T08:07:56Z</time>
      </trkpt>
      <trkpt lat="44.4869" lon="2.7788">
        <ele>674.5</ele>
        <time>2019-05-04T08:07:57Z</time>
      </trkpt>
      <trkpt lat="44.48694" lon="2.77884">
        <ele>681.23</ele>
        <time>2019-05-04T08:07:59Z</time>
      </trkpt>
      <trkpt lat="44.48696" lon="2.77886">
        <ele>675.94</ele>
        <time>2019-05-04T08:08:00Z</time>
      </trkpt>
      <trkpt lat="44.48721" lon="2.77904">
        <ele>674.02</ele>
        <time>2019-05-04T08:08:12Z</time>
      </trkpt>
      <trkpt lat="44.4875" lon="2.77921">
        <ele>671.62</ele>
        <time>2019-05-04T08:08:23Z</time>
      </trkpt>
      <trkpt lat="44.48787" lon="2.77928">
        <ele>669.22</ele>
        <time>2019-05-04T08:08:35Z</time>
      </trkpt>
      <trkpt lat="44.488" lon="2.77929">
        <ele>668.25</ele>
        <time>2019-05-04T08:08:42Z</time>
      </trkpt>
      <trkpt lat="44.48796" lon="2.77925">
        <ele>668.73</ele>
        <time>2019-05-04T08:08:47Z</time>
      </trkpt>
      <trkpt lat="44.48764" lon="2.77925">
        <ele>670.66</ele>
        <time>2019-05-04T08:09:00Z</time>
      </trkpt>
      <trkpt lat="44.48739" lon="2.77914">
        <ele>672.1</ele>
        <time>2019-05-04T08:09:11Z</time>
      </trkpt>
      <trkpt lat="44.48713" lon="2.77897">
        <ele>674.02</ele>
        <time>2019-05-04T08:09:21Z</time>
      </trkpt>
      <trkpt lat="44.48684" lon="2.77876">
        <ele>675.46</ele>
        <time>2019-05-04T08:09:35Z</time>
      </trkpt>
      <trkpt lat="44.48664" lon="2.77862">
        <ele>675.46</ele>
        <time>2019-05-04T08:09:48Z</time>
      </trkpt>
      <trkpt lat="44.48638" lon="2.77852">
        <ele>675.46</ele>
        <time>2019-05-04T08:10:01Z</time>
      </trkpt>
      <trkpt lat="44.48597" lon="2.77856">
        <ele>674.98</ele>
        <time>2019-05-04T08:10:14Z</time>
      </trkpt>
      <trkpt lat="44.48593" lon="2.77855">
        <ele>674.98</ele>
        <time>2019-05-04T08:10:15Z</time>
      </trkpt>
      <trkpt lat="44.48578" lon="2.77844">
        <ele>674.98</ele>
        <time>2019-05-04T08:10:19Z</time>
      </trkpt>
      <trkpt lat="44.4854" lon="2.77792">
        <ele>674.5</ele>
        <time>2019-05-04T08:10:32Z</time>
      </trkpt>
      <trkpt lat="44.48499" lon="2.7773">
        <ele>675.46</ele>
        <time>2019-05-04T08:10:47Z</time>
      </trkpt>
      <trkpt lat="44.48475" lon="2.77704">
        <ele>675.94</ele>
        <time>2019-05-04T08:10:55Z</time>
      </trkpt>
      <trkpt lat="44.48481" lon="2.77706">
        <ele>675.94</ele>
        <time>2019-05-04T08:11:02Z</time>
      </trkpt>
      <trkpt lat="44.48481" lon="2.777">
        <ele>676.42</ele>
        <time>2019-05-04T08:11:10Z</time>
      </trkpt>
      <trkpt lat="44.48481" lon="2.777">
        <ele>675.94</ele>
        <time>2019-05-04T08:11:41Z</time>
      </trkpt>
      <trkpt lat="44.48479" lon="2.77702">
        <ele>675.94</ele>
        <time>2019-05-04T08:12:00Z</time>
      </trkpt>
      <trkpt lat="44.48474" lon="2.77705">
        <ele>676.42</ele>
        <time>2019-05-04T08:12:08Z</time>
      </trkpt>
      <trkpt lat="44.48445" lon="2.77701">
        <ele>677.39</ele>
        <time>2019-05-04T08:12:19Z</time>
      </trkpt>
      <trkpt lat="44.48408" lon="2.77705">
        <ele>678.35</ele>
        <time>2019-05-04T08:12:32Z</time>
      </trkpt>
      <trkpt lat="44.48399" lon="2.77703">
        <ele>677.87</ele>
        <time>2019-05-04T08:12:36Z</time>
      </trkpt>
      <trkpt lat="44.48373" lon="2.77704">
        <ele>676.91</ele>
        <time>2019-05-04T08:12:52Z</time>
      </trkpt>
      <trkpt lat="44.48364" lon="2.77705">
        <ele>676.91</ele>
        <time>2019-05-04T08:13:04Z</time>
      </trkpt>
      <trkpt lat="44.48364" lon="2.77705">
        <ele>676.42</ele>
        <time>2019-05-04T08:13:06Z</time>
      </trkpt>
      <trkpt lat="44.48356" lon="2.77705">
        <ele>675.94</ele>
        <time>2019-05-04T08:13:16Z</time>
      </trkpt>
      <trkpt lat="44.48356" lon="2.77705">
        <ele>675.94</ele>
        <time>2019-05-04T08:13:42Z</time>
      </trkpt>
      <trkpt lat="44.48356" lon="2.77705">
        <ele>675.94</ele>
        <time>2019-05-04T08:13:48Z</time>
      </trkpt>
      <trkpt lat="44.48351" lon="2.77707">
        <ele>675.94</ele>
        <time>2019-05-04T08:13:51Z</time>
      </trkpt>
      <trkpt lat="44.48332" lon="2.77712">
        <ele>674.5</ele>
        <time>2019-05-04T08:13:57Z</time>
      </trkpt>
      <trkpt lat="44.48292" lon="2.77683">
        <ele>672.1</ele>
        <time>2019-05-04T08:14:05Z</time>
      </trkpt>
      <trkpt lat="44.48265" lon="2.77637">
        <ele>669.22</ele>
        <time>2019-05-04T08:14:11Z</time>
      </trkpt>
      <trkpt lat="44.48243" lon="2.77608">
        <ele>666.81</ele>
        <time>2019-05-04T08:14:16Z</time>
      </trkpt>
      <trkpt lat="44.48232" lon="2.77592">
        <ele>664.89</ele>
        <time>2019-05-04T08:14:19Z</time>
      </trkpt>
      <trkpt lat="44.48225" lon="2.77582">
        <ele>664.41</ele>
        <time>2019-05-04T08:14:21Z</time>
      </trkpt>
      <trkpt lat="44.48216" lon="2.77577">
        <ele>663.45</ele>
        <time>2019-05-04T08:14:23Z</time>
      </trkpt>
      <trkpt lat="44.48199" lon="2.77587">
        <ele>663.93</ele>
        <time>2019-05-04T08:14:27Z</time>
      </trkpt>
      <trkpt lat="44.48145" lon="2.77663">
        <ele>666.33</ele>
        <time>2019-05-04T08:14:44Z</time>
      </trkpt>
      <trkpt lat="44.48095" lon="2.77717">
        <ele>667.77</ele>
        <time>2019-05-04T08:15:01Z</time>
      </trkpt>
      <trkpt lat="44.48076" lon="2.77727">
        <ele>667.29</ele>
        <time>2019-05-04T08:15:06Z</time>
      </trkpt>
      <trkpt lat="44.48059" lon="2.77732">
        <ele>667.29</ele>
        <time>2019-05-04T08:15:10Z</time>
      </trkpt>
      <trkpt lat="44.48036" lon="2.7774">
        <ele>666.33</ele>
        <time>2019-05-04T08:15:18Z</time>
      </trkpt>
      <trkpt lat="44.48051" lon="2.77741">
        <ele>666.81</ele>
        <time>2019-05-04T08:15:25Z</time>
      </trkpt>
      <trkpt lat="44.48101" lon="2.77721">
        <ele>668.25</ele>
        <time>2019-05-04T08:15:39Z</time>
      </trkpt>
      <trkpt lat="44.48111" lon="2.77715">
        <ele>668.25</ele>
        <time>2019-05-04T08:15:42Z</time>
      </trkpt>
      <trkpt lat="44.48116" lon="2.77734">
        <ele>667.77</ele>
        <time>2019-05-04T08:15:48Z</time>
      </trkpt>
      <trkpt lat="44.4808" lon="2.77829">
        <ele>664.41</ele>
        <time>2019-05-04T08:16:01Z</time>
      </trkpt>
      <trkpt lat="44.48028" lon="2.7797">
        <ele>662.01</ele>
        <time>2019-05-04T08:16:18Z</time>
      </trkpt>
      <trkpt lat="44.47981" lon="2.7808">
        <ele>659.12</ele>
        <time>2019-05-04T08:16:30Z</time>
      </trkpt>
      <trkpt lat="44.47976" lon="2.78088">
        <ele>659.12</ele>
        <time>2019-05-04T08:16:31Z</time>
      </trkpt>
      <trkpt lat="44.47963" lon="2.78141">
        <ele>657.2</ele>
        <time>2019-05-04T08:16:36Z</time>
      </trkpt>
      <trkpt lat="44.47974" lon="2.7817">
        <ele>657.2</ele>
        <time>2019-05-04T08:16:39Z</time>
      </trkpt>
      <trkpt lat="44.48026" lon="2.78258">
        <ele>658.64</ele>
        <time>2019-05-04T08:16:52Z</time>
      </trkpt>
      <trkpt lat="44.48025" lon="2.7832">
        <ele>658.16</ele>
        <time>2019-05-04T08:17:01Z</time>
      </trkpt>
      <trkpt lat="44.48022" lon="2.78326">
        <ele>658.64</ele>
        <time>2019-05-04T08:17:02Z</time>
      </trkpt>
      <trkpt lat="44.47998" lon="2.78358">
        <ele>660.08</ele>
        <time>2019-05-04T08:17:09Z</time>
      </trkpt>
      <trkpt lat="44.47972" lon="2.78394">
        <ele>663.93</ele>
        <time>2019-05-04T08:17:18Z</time>
      </trkpt>
      <trkpt lat="44.47969" lon="2.78398">
        <ele>663.93</ele>
        <time>2019-05-04T08:17:19Z</time>
      </trkpt>
      <trkpt lat="44.47935" lon="2.78452">
        <ele>666.33</ele>
        <time>2019-05-04T08:17:32Z</time>
      </trkpt>
      <trkpt lat="44.47894" lon="2.78524">
        <ele>667.29</ele>
        <time>2019-05-04T08:17:48Z</time>
      </trkpt>
      <trkpt lat="44.47885" lon="2.78538">
        <ele>667.29</ele>
        <time>2019-05-04T08:17:51Z</time>
      </trkpt>
      <trkpt lat="44.47837" lon="2.78616">
        <ele>667.77</ele>
        <time>2019-05-04T08:18:07Z</time>
      </trkpt>
      <trkpt lat="44.47826" lon="2.78642">
        <ele>668.73</ele>
        <time>2019-05-04T08:18:12Z</time>
      </trkpt>
      <trkpt lat="44.47814" lon="2.78681">
        <ele>669.7</ele>
        <time>2019-05-04T08:18:19Z</time>
      </trkpt>
      <trkpt lat="44.47787" lon="2.78742">
        <ele>671.14</ele>
        <time>2019-05-04T08:18:33Z</time>
      </trkpt>
      <trkpt lat="44.47781" lon="2.7877">
        <ele>671.62</ele>
        <time>2019-05-04T08:18:44Z</time>
      </trkpt>
      <trkpt lat="44.47779" lon="2.78789">
        <ele>671.62</ele>
        <time>2019-05-04T08:18:53Z</time>
      </trkpt>
      <trkpt lat="44.47772" lon="2.78837">
        <ele>672.58</ele>
        <time>2019-05-04T08:19:07Z</time>
      </trkpt>
      <trkpt lat="44.47756" lon="2.78898">
        <ele>673.06</ele>
        <time>2019-05-04T08:19:21Z</time>
      </trkpt>
      <trkpt lat="44.47749" lon="2.7896">
        <ele>674.02</ele>
        <time>2019-05-04T08:19:35Z</time>
      </trkpt>
      <trkpt lat="44.47761" lon="2.79002">
        <ele>673.06</ele>
        <time>2019-05-04T08:19:47Z</time>
      </trkpt>
      <trkpt lat="44.47758" lon="2.79049">
        <ele>670.66</ele>
        <time>2019-05-04T08:19:55Z</time>
      </trkpt>
      <trkpt lat="44.47754" lon="2.79063">
        <ele>669.7</ele>
        <time>2019-05-04T08:19:57Z</time>
      </trkpt>
      <trkpt lat="44.47755" lon="2.79121">
        <ele>665.37</ele>
        <time>2019-05-04T08:20:03Z</time>
      </trkpt>
      <trkpt lat="44.47777" lon="2.79188">
        <ele>661.04</ele>
        <time>2019-05-04T08:20:08Z</time>
      </trkpt>
      <trkpt lat="44.47785" lon="2.79233">
        <ele>657.68</ele>
        <time>2019-05-04T08:20:11Z</time>
      </trkpt>
      <trkpt lat="44.47773" lon="2.79286">
        <ele>658.16</ele>
        <time>2019-05-04T08:20:15Z</time>
      </trkpt>
      <trkpt lat="44.47744" lon="2.79373">
        <ele>662.49</ele>
        <time>2019-05-04T08:20:25Z</time>
      </trkpt>
      <trkpt lat="44.47724" lon="2.79444">
        <ele>663.93</ele>
        <time>2019-05-04T08:20:35Z</time>
      </trkpt>
      <trkpt lat="44.47717" lon="2.79463">
        <ele>665.37</ele>
        <time>2019-05-04T08:20:38Z</time>
      </trkpt>
      <trkpt lat="44.47689" lon="2.79492">
        <ele>667.29</ele>
        <time>2019-05-04T08:20:48Z</time>
      </trkpt>
      <trkpt lat="44.47685" lon="2.79491">
        <ele>667.29</ele>
        <time>2019-05-04T08:20:49Z</time>
      </trkpt>
      <trkpt lat="44.47668" lon="2.79484">
        <ele>666.81</ele>
        <time>2019-05-04T08:20:54Z</time>
      </trkpt>
      <trkpt lat="44.47642" lon="2.79493">
        <ele>665.85</ele>
        <time>2019-05-04T08:21:01Z</time>
      </trkpt>
      <trkpt lat="44.47614" lon="2.79548">
        <ele>666.81</ele>
        <time>2019-05-04T08:21:15Z</time>
      </trkpt>
      <trkpt lat="44.476" lon="2.79577">
        <ele>666.81</ele>
        <time>2019-05-04T08:21:21Z</time>
      </trkpt>
      <trkpt lat="44.47556" lon="2.79657">
        <ele>668.73</ele>
        <time>2019-05-04T08:21:38Z</time>
      </trkpt>
      <trkpt lat="44.47542" lon="2.7969">
        <ele>670.18</ele>
        <time>2019-05-04T08:21:44Z</time>
      </trkpt>
      <trkpt lat="44.47534" lon="2.79744">
        <ele>672.1</ele>
        <time>2019-05-04T08:21:56Z</time>
      </trkpt>
      <trkpt lat="44.47543" lon="2.79789">
        <ele>671.14</ele>
        <time>2019-05-04T08:22:10Z</time>
      </trkpt>
      <trkpt lat="44.4757" lon="2.79806">
        <ele>671.14</ele>
        <time>2019-05-04T08:22:21Z</time>
      </trkpt>
      <trkpt lat="44.47598" lon="2.79819">
        <ele>669.22</ele>
        <time>2019-05-04T08:22:32Z</time>
      </trkpt>
      <trkpt lat="44.47616" lon="2.79829">
        <ele>667.29</ele>
        <time>2019-05-04T08:22:35Z</time>
      </trkpt>
      <trkpt lat="44.47641" lon="2.79854">
        <ele>662.49</ele>
        <time>2019-05-04T08:22:39Z</time>
      </trkpt>
      <trkpt lat="44.4765" lon="2.7988">
        <ele>659.6</ele>
        <time>2019-05-04T08:22:42Z</time>
      </trkpt>
      <trkpt lat="44.47642" lon="2.79912">
        <ele>656.24</ele>
        <time>2019-05-04T08:22:46Z</time>
      </trkpt>
      <trkpt lat="44.47633" lon="2.79928">
        <ele>655.28</ele>
        <time>2019-05-04T08:22:48Z</time>
      </trkpt>
      <trkpt lat="44.4761" lon="2.79988">
        <ele>651.43</ele>
        <time>2019-05-04T08:22:54Z</time>
      </trkpt>
      <trkpt lat="44.4759" lon="2.80043">
        <ele>647.59</ele>
        <time>2019-05-04T08:22:59Z</time>
      </trkpt>
      <trkpt lat="44.47579" lon="2.80076">
        <ele>645.66</ele>
        <time>2019-05-04T08:23:02Z</time>
      </trkpt>
      <trkpt lat="44.4757" lon="2.80095">
        <ele>643.74</ele>
        <time>2019-05-04T08:23:04Z</time>
      </trkpt>
      <trkpt lat="44.47558" lon="2.80122">
        <ele>642.3</ele>
        <time>2019-05-04T08:23:07Z</time>
      </trkpt>
      <trkpt lat="44.47549" lon="2.80151">
        <ele>640.86</ele>
        <time>2019-05-04T08:23:10Z</time>
      </trkpt>
      <trkpt lat="44.47545" lon="2.80195">
        <ele>637.01</ele>
        <time>2019-05-04T08:23:14Z</time>
      </trkpt>
      <trkpt lat="44.47519" lon="2.8024">
        <ele>633.17</ele>
        <time>2019-05-04T08:23:21Z</time>
      </trkpt>
      <trkpt lat="44.47512" lon="2.8024">
        <ele>632.68</ele>
        <time>2019-05-04T08:23:22Z</time>
      </trkpt>
      <trkpt lat="44.47495" lon="2.80232">
        <ele>632.2</ele>
        <time>2019-05-04T08:23:25Z</time>
      </trkpt>
      <trkpt lat="44.47484" lon="2.80224">
        <ele>631.24</ele>
        <time>2019-05-04T08:23:27Z</time>
      </trkpt>
      <trkpt lat="44.47466" lon="2.80202">
        <ele>628.84</ele>
        <time>2019-05-04T08:23:31Z</time>
      </trkpt>
      <trkpt lat="44.47449" lon="2.80153">
        <ele>626.44</ele>
        <time>2019-05-04T08:23:38Z</time>
      </trkpt>
      <trkpt lat="44.47429" lon="2.80106">
        <ele>622.11</ele>
        <time>2019-05-04T08:23:46Z</time>
      </trkpt>
      <trkpt lat="44.47416" lon="2.80101">
        <ele>620.67</ele>
        <time>2019-05-04T08:23:48Z</time>
      </trkpt>
      <trkpt lat="44.47374" lon="2.80099">
        <ele>616.34</ele>
        <time>2019-05-04T08:23:54Z</time>
      </trkpt>
      <trkpt lat="44.47368" lon="2.80101">
        <ele>615.86</ele>
        <time>2019-05-04T08:23:55Z</time>
      </trkpt>
      <trkpt lat="44.47339" lon="2.80118">
        <ele>611.06</ele>
        <time>2019-05-04T08:23:59Z</time>
      </trkpt>
      <trkpt lat="44.47306" lon="2.80147">
        <ele>605.29</ele>
        <time>2019-05-04T08:24:03Z</time>
      </trkpt>
      <trkpt lat="44.47288" lon="2.80163">
        <ele>601.92</ele>
        <time>2019-05-04T08:24:05Z</time>
      </trkpt>
      <trkpt lat="44.47278" lon="2.80171">
        <ele>600.96</ele>
        <time>2019-05-04T08:24:06Z</time>
      </trkpt>
      <trkpt lat="44.47186" lon="2.80189">
        <ele>596.15</ele>
        <time>2019-05-04T08:24:15Z</time>
      </trkpt>
      <trkpt lat="44.47114" lon="2.80175">
        <ele>596.15</ele>
        <time>2019-05-04T08:24:25Z</time>
      </trkpt>
      <trkpt lat="44.47036" lon="2.8018">
        <ele>593.75</ele>
        <time>2019-05-04T08:24:35Z</time>
      </trkpt>
      <trkpt lat="44.46994" lon="2.80172">
        <ele>588.95</ele>
        <time>2019-05-04T08:24:40Z</time>
      </trkpt>
      <trkpt lat="44.46967" lon="2.80161">
        <ele>586.06</ele>
        <time>2019-05-04T08:24:43Z</time>
      </trkpt>
      <trkpt lat="44.4695" lon="2.80151">
        <ele>583.66</ele>
        <time>2019-05-04T08:24:45Z</time>
      </trkpt>
      <trkpt lat="44.46915" lon="2.80152">
        <ele>581.73</ele>
        <time>2019-05-04T08:24:50Z</time>
      </trkpt>
      <trkpt lat="44.46898" lon="2.80166">
        <ele>581.25</ele>
        <time>2019-05-04T08:24:55Z</time>
      </trkpt>
      <trkpt lat="44.46895" lon="2.80172">
        <ele>580.77</ele>
        <time>2019-05-04T08:25:04Z</time>
      </trkpt>
      <trkpt lat="44.46895" lon="2.80172">
        <ele>580.77</ele>
        <time>2019-05-04T08:25:27Z</time>
      </trkpt>
      <trkpt lat="44.46895" lon="2.80172">
        <ele>580.77</ele>
        <time>2019-05-04T08:25:41Z</time>
      </trkpt>
      <trkpt lat="44.46897" lon="2.80179">
        <ele>580.77</ele>
        <time>2019-05-04T08:25:44Z</time>
      </trkpt>
      <trkpt lat="44.46908" lon="2.80187">
        <ele>579.81</ele>
        <time>2019-05-04T08:25:48Z</time>
      </trkpt>
      <trkpt lat="44.46937" lon="2.80207">
        <ele>580.29</ele>
        <time>2019-05-04T08:25:55Z</time>
      </trkpt>
      <trkpt lat="44.46978" lon="2.80251">
        <ele>580.29</ele>
        <time>2019-05-04T08:26:05Z</time>
      </trkpt>
      <trkpt lat="44.47039" lon="2.80328">
        <ele>579.33</ele>
        <time>2019-05-04T08:26:20Z</time>
      </trkpt>
      <trkpt lat="44.47044" lon="2.80333">
        <ele>579.33</ele>
        <time>2019-05-04T08:26:21Z</time>
      </trkpt>
      <trkpt lat="44.47076" lon="2.80347">
        <ele>578.37</ele>
        <time>2019-05-04T08:26:27Z</time>
      </trkpt>
      <trkpt lat="44.47114" lon="2.80347">
        <ele>577.89</ele>
        <time>2019-05-04T08:26:34Z</time>
      </trkpt>
      <trkpt lat="44.47139" lon="2.80358">
        <ele>577.41</ele>
        <time>2019-05-04T08:26:39Z</time>
      </trkpt>
      <trkpt lat="44.47175" lon="2.80393">
        <ele>578.85</ele>
        <time>2019-05-04T08:26:48Z</time>
      </trkpt>
      <trkpt lat="44.47208" lon="2.80458">
        <ele>581.73</ele>
        <time>2019-05-04T08:27:04Z</time>
      </trkpt>
      <trkpt lat="44.47219" lon="2.80496">
        <ele>584.14</ele>
        <time>2019-05-04T08:27:14Z</time>
      </trkpt>
      <trkpt lat="44.47223" lon="2.80553">
        <ele>587.5</ele>
        <time>2019-05-04T08:27:27Z</time>
      </trkpt>
      <trkpt lat="44.47239" lon="2.8061">
        <ele>590.39</ele>
        <time>2019-05-04T08:27:41Z</time>
      </trkpt>
      <trkpt lat="44.47233" lon="2.80669">
        <ele>593.27</ele>
        <time>2019-05-04T08:27:54Z</time>
      </trkpt>
      <trkpt lat="44.47222" lon="2.80707">
        <ele>595.19</ele>
        <time>2019-05-04T08:28:03Z</time>
      </trkpt>
      <trkpt lat="44.47198" lon="2.80753">
        <ele>598.08</ele>
        <time>2019-05-04T08:28:15Z</time>
      </trkpt>
      <trkpt lat="44.47167" lon="2.80804">
        <ele>599.52</ele>
        <time>2019-05-04T08:28:29Z</time>
      </trkpt>
      <trkpt lat="44.47131" lon="2.80835">
        <ele>600.48</ele>
        <time>2019-05-04T08:28:43Z</time>
      </trkpt>
      <trkpt lat="44.47108" lon="2.80887">
        <ele>601.44</ele>
        <time>2019-05-04T08:28:58Z</time>
      </trkpt>
      <trkpt lat="44.47101" lon="2.8091">
        <ele>592.31</ele>
        <time>2019-05-04T08:29:04Z</time>
      </trkpt>
      <trkpt lat="44.471" lon="2.80914">
        <ele>612.02</ele>
        <time>2019-05-04T08:29:05Z</time>
      </trkpt>
      <trkpt lat="44.47099" lon="2.80919">
        <ele>597.12</ele>
        <time>2019-05-04T08:29:06Z</time>
      </trkpt>
      <trkpt lat="44.47098" lon="2.80922">
        <ele>604.33</ele>
        <time>2019-05-04T08:29:07Z</time>
      </trkpt>
      <trkpt lat="44.47085" lon="2.80971">
        <ele>603.36</ele>
        <time>2019-05-04T08:29:20Z</time>
      </trkpt>
      <trkpt lat="44.47088" lon="2.8101">
        <ele>604.33</ele>
        <time>2019-05-04T08:29:35Z</time>
      </trkpt>
      <trkpt lat="44.47092" lon="2.81027">
        <ele>603.85</ele>
        <time>2019-05-04T08:29:45Z</time>
      </trkpt>
      <trkpt lat="44.47092" lon="2.81027">
        <ele>603.85</ele>
        <time>2019-05-04T08:30:07Z</time>
      </trkpt>
      <trkpt lat="44.47092" lon="2.81027">
        <ele>603.85</ele>
        <time>2019-05-04T08:30:42Z</time>
      </trkpt>
      <trkpt lat="44.47092" lon="2.81026">
        <ele>603.85</ele>
        <time>2019-05-04T08:31:15Z</time>
      </trkpt>
      <trkpt lat="44.47094" lon="2.81026">
        <ele>604.33</ele>
        <time>2019-05-04T08:31:23Z</time>
      </trkpt>
      <trkpt lat="44.47091" lon="2.81021">
        <ele>604.81</ele>
        <time>2019-05-04T08:31:32Z</time>
      </trkpt>
      <trkpt lat="44.47092" lon="2.81023">
        <ele>604.81</ele>
        <time>2019-05-04T08:31:33Z</time>
      </trkpt>
      <trkpt lat="44.47122" lon="2.8107">
        <ele>604.33</ele>
        <time>2019-05-04T08:31:48Z</time>
      </trkpt>
      <trkpt lat="44.47153" lon="2.81124">
        <ele>606.25</ele>
        <time>2019-05-04T08:32:03Z</time>
      </trkpt>
      <trkpt lat="44.47183" lon="2.81189">
        <ele>608.65</ele>
        <time>2019-05-04T08:32:20Z</time>
      </trkpt>
      <trkpt lat="44.47214" lon="2.81235">
        <ele>609.61</ele>
        <time>2019-05-04T08:32:33Z</time>
      </trkpt>
      <trkpt lat="44.47257" lon="2.81295">
        <ele>611.54</ele>
        <time>2019-05-04T08:32:50Z</time>
      </trkpt>
      <trkpt lat="44.4729" lon="2.81318">
        <ele>614.9</ele>
        <time>2019-05-04T08:33:02Z</time>
      </trkpt>
      <trkpt lat="44.47313" lon="2.81285">
        <ele>615.86</ele>
        <time>2019-05-04T08:33:14Z</time>
      </trkpt>
      <trkpt lat="44.47338" lon="2.81225">
        <ele>618.75</ele>
        <time>2019-05-04T08:33:30Z</time>
      </trkpt>
      <trkpt lat="44.47353" lon="2.81179">
        <ele>621.15</ele>
        <time>2019-05-04T08:33:43Z</time>
      </trkpt>
      <trkpt lat="44.47365" lon="2.81131">
        <ele>623.55</ele>
        <time>2019-05-04T08:33:56Z</time>
      </trkpt>
      <trkpt lat="44.47374" lon="2.81097">
        <ele>624.99</ele>
        <time>2019-05-04T08:34:06Z</time>
      </trkpt>
      <trkpt lat="44.47396" lon="2.81046">
        <ele>627.88</ele>
        <time>2019-05-04T08:34:20Z</time>
      </trkpt>
      <trkpt lat="44.47429" lon="2.8102">
        <ele>631.24</ele>
        <time>2019-05-04T08:34:32Z</time>
      </trkpt>
      <trkpt lat="44.47469" lon="2.80988">
        <ele>634.13</ele>
        <time>2019-05-04T08:34:47Z</time>
      </trkpt>
      <trkpt lat="44.47481" lon="2.80982">
        <ele>629.32</ele>
        <time>2019-05-04T08:34:51Z</time>
      </trkpt>
      <trkpt lat="44.47484" lon="2.8098">
        <ele>638.93</ele>
        <time>2019-05-04T08:34:52Z</time>
      </trkpt>
      <trkpt lat="44.47486" lon="2.80978">
        <ele>637.01</ele>
        <time>2019-05-04T08:34:53Z</time>
      </trkpt>
      <trkpt lat="44.47526" lon="2.80955">
        <ele>638.45</ele>
        <time>2019-05-04T08:35:07Z</time>
      </trkpt>
      <trkpt lat="44.47576" lon="2.80933">
        <ele>640.86</ele>
        <time>2019-05-04T08:35:25Z</time>
      </trkpt>
      <trkpt lat="44.47616" lon="2.80917">
        <ele>640.38</ele>
        <time>2019-05-04T08:35:40Z</time>
      </trkpt>
      <trkpt lat="44.47674" lon="2.80892">
        <ele>639.41</ele>
        <time>2019-05-04T08:35:56Z</time>
      </trkpt>
      <trkpt lat="44.47735" lon="2.80848">
        <ele>640.86</ele>
        <time>2019-05-04T08:36:14Z</time>
      </trkpt>
      <trkpt lat="44.4776" lon="2.80817">
        <ele>642.3</ele>
        <time>2019-05-04T08:36:25Z</time>
      </trkpt>
      <trkpt lat="44.47795" lon="2.80772">
        <ele>645.18</ele>
        <time>2019-05-04T08:36:41Z</time>
      </trkpt>
      <trkpt lat="44.47817" lon="2.80744">
        <ele>648.07</ele>
        <time>2019-05-04T08:36:52Z</time>
      </trkpt>
      <trkpt lat="44.47824" lon="2.80735">
        <ele>648.07</ele>
        <time>2019-05-04T08:36:56Z</time>
      </trkpt>
      <trkpt lat="44.47828" lon="2.80731">
        <ele>647.59</ele>
        <time>2019-05-04T08:37:07Z</time>
      </trkpt>
      <trkpt lat="44.47828" lon="2.80731">
        <ele>648.07</ele>
        <time>2019-05-04T08:37:39Z</time>
      </trkpt>
      <trkpt lat="44.47828" lon="2.80731">
        <ele>647.59</ele>
        <time>2019-05-04T08:38:13Z</time>
      </trkpt>
      <trkpt lat="44.47828" lon="2.80731">
        <ele>647.59</ele>
        <time>2019-05-04T08:38:46Z</time>
      </trkpt>
      <trkpt lat="44.47828" lon="2.80731">
        <ele>647.59</ele>
        <time>2019-05-04T08:39:18Z</time>
      </trkpt>
      <trkpt lat="44.47828" lon="2.80731">
        <ele>647.59</ele>
        <time>2019-05-04T08:39:43Z</time>
      </trkpt>
      <trkpt lat="44.47828" lon="2.80731">
        <ele>647.59</ele>
        <time>2019-05-04T08:40:11Z</time>
      </trkpt>
      <trkpt lat="44.47828" lon="2.80731">
        <ele>648.07</ele>
        <time>2019-05-04T08:40:42Z</time>
      </trkpt>
      <trkpt lat="44.47829" lon="2.80727">
        <ele>647.59</ele>
        <time>2019-05-04T08:41:07Z</time>
      </trkpt>
      <trkpt lat="44.47841" lon="2.80705">
        <ele>649.03</ele>
        <time>2019-05-04T08:41:17Z</time>
      </trkpt>
      <trkpt lat="44.47861" lon="2.80683">
        <ele>650.47</ele>
        <time>2019-05-04T08:41:28Z</time>
      </trkpt>
      <trkpt lat="44.47894" lon="2.80656">
        <ele>652.87</ele>
        <time>2019-05-04T08:41:43Z</time>
      </trkpt>
      <trkpt lat="44.47925" lon="2.80614">
        <ele>655.28</ele>
        <time>2019-05-04T08:41:58Z</time>
      </trkpt>
      <trkpt lat="44.47967" lon="2.80591">
        <ele>656.72</ele>
        <time>2019-05-04T08:42:13Z</time>
      </trkpt>
      <trkpt lat="44.47985" lon="2.80592">
        <ele>656.72</ele>
        <time>2019-05-04T08:42:18Z</time>
      </trkpt>
      <trkpt lat="44.48037" lon="2.80644">
        <ele>658.16</ele>
        <time>2019-05-04T08:42:33Z</time>
      </trkpt>
      <trkpt lat="44.48096" lon="2.80695">
        <ele>658.64</ele>
        <time>2019-05-04T08:42:48Z</time>
      </trkpt>
      <trkpt lat="44.48104" lon="2.807">
        <ele>658.64</ele>
        <time>2019-05-04T08:42:50Z</time>
      </trkpt>
      <trkpt lat="44.48121" lon="2.80704">
        <ele>658.64</ele>
        <time>2019-05-04T08:42:54Z</time>
      </trkpt>
      <trkpt lat="44.48177" lon="2.8072">
        <ele>658.64</ele>
        <time>2019-05-04T08:43:08Z</time>
      </trkpt>
      <trkpt lat="44.48181" lon="2.80724">
        <ele>659.12</ele>
        <time>2019-05-04T08:43:11Z</time>
      </trkpt>
      <trkpt lat="44.48202" lon="2.80745">
        <ele>658.16</ele>
        <time>2019-05-04T08:43:27Z</time>
      </trkpt>
      <trkpt lat="44.48211" lon="2.80753">
        <ele>658.16</ele>
        <time>2019-05-04T08:43:35Z</time>
      </trkpt>
      <trkpt lat="44.48228" lon="2.80782">
        <ele>657.68</ele>
        <time>2019-05-04T08:43:51Z</time>
      </trkpt>
      <trkpt lat="44.48247" lon="2.80827">
        <ele>657.68</ele>
        <time>2019-05-04T08:44:02Z</time>
      </trkpt>
      <trkpt lat="44.4825" lon="2.80873">
        <ele>657.68</ele>
        <time>2019-05-04T08:44:10Z</time>
      </trkpt>
      <trkpt lat="44.48259" lon="2.80915">
        <ele>657.68</ele>
        <time>2019-05-04T08:44:17Z</time>
      </trkpt>
      <trkpt lat="44.48257" lon="2.80944">
        <ele>657.68</ele>
        <time>2019-05-04T08:44:22Z</time>
      </trkpt>
      <trkpt lat="44.48238" lon="2.80987">
        <ele>657.2</ele>
        <time>2019-05-04T08:44:30Z</time>
      </trkpt>
      <trkpt lat="44.48228" lon="2.81001">
        <ele>656.72</ele>
        <time>2019-05-04T08:44:33Z</time>
      </trkpt>
      <trkpt lat="44.48211" lon="2.81014">
        <ele>656.72</ele>
        <time>2019-05-04T08:44:37Z</time>
      </trkpt>
      <trkpt lat="44.48193" lon="2.81024">
        <ele>655.76</ele>
        <time>2019-05-04T08:44:41Z</time>
      </trkpt>
      <trkpt lat="44.48121" lon="2.811">
        <ele>654.31</ele>
        <time>2019-05-04T08:44:56Z</time>
      </trkpt>
      <trkpt lat="44.48109" lon="2.81118">
        <ele>654.31</ele>
        <time>2019-05-04T08:44:59Z</time>
      </trkpt>
      <trkpt lat="44.481" lon="2.81145">
        <ele>654.31</ele>
        <time>2019-05-04T08:45:03Z</time>
      </trkpt>
      <trkpt lat="44.48089" lon="2.81216">
        <ele>650.47</ele>
        <time>2019-05-04T08:45:11Z</time>
      </trkpt>
      <trkpt lat="44.48085" lon="2.81236">
        <ele>648.55</ele>
        <time>2019-05-04T08:45:13Z</time>
      </trkpt>
      <trkpt lat="44.48074" lon="2.81276">
        <ele>646.14</ele>
        <time>2019-05-04T08:45:17Z</time>
      </trkpt>
      <trkpt lat="44.48076" lon="2.81316">
        <ele>643.26</ele>
        <time>2019-05-04T08:45:21Z</time>
      </trkpt>
      <trkpt lat="44.48107" lon="2.81357">
        <ele>645.66</ele>
        <time>2019-05-04T08:45:28Z</time>
      </trkpt>
      <trkpt lat="44.48141" lon="2.81377">
        <ele>649.03</ele>
        <time>2019-05-04T08:45:37Z</time>
      </trkpt>
      <trkpt lat="44.48174" lon="2.81406">
        <ele>652.39</ele>
        <time>2019-05-04T08:45:48Z</time>
      </trkpt>
      <trkpt lat="44.48176" lon="2.81409">
        <ele>652.39</ele>
        <time>2019-05-04T08:45:49Z</time>
      </trkpt>
      <trkpt lat="44.48178" lon="2.81435">
        <ele>654.31</ele>
        <time>2019-05-04T08:45:55Z</time>
      </trkpt>
      <trkpt lat="44.48173" lon="2.815">
        <ele>657.68</ele>
        <time>2019-05-04T08:46:11Z</time>
      </trkpt>
      <trkpt lat="44.4817" lon="2.8156">
        <ele>661.04</ele>
        <time>2019-05-04T08:46:25Z</time>
      </trkpt>
      <trkpt lat="44.48177" lon="2.81603">
        <ele>662.97</ele>
        <time>2019-05-04T08:46:35Z</time>
      </trkpt>
      <trkpt lat="44.48206" lon="2.81639">
        <ele>666.33</ele>
        <time>2019-05-04T08:46:48Z</time>
      </trkpt>
      <trkpt lat="44.48232" lon="2.81626">
        <ele>668.73</ele>
        <time>2019-05-04T08:46:57Z</time>
      </trkpt>
      <trkpt lat="44.48268" lon="2.81582">
        <ele>672.1</ele>
        <time>2019-05-04T08:47:12Z</time>
      </trkpt>
      <trkpt lat="44.483" lon="2.81556">
        <ele>673.06</ele>
        <time>2019-05-04T08:47:26Z</time>
      </trkpt>
      <trkpt lat="44.48328" lon="2.8155">
        <ele>674.02</ele>
        <time>2019-05-04T08:47:40Z</time>
      </trkpt>
      <trkpt lat="44.48344" lon="2.81546">
        <ele>668.73</ele>
        <time>2019-05-04T08:47:53Z</time>
      </trkpt>
      <trkpt lat="44.48346" lon="2.81546">
        <ele>674.5</ele>
        <time>2019-05-04T08:47:55Z</time>
      </trkpt>
      <trkpt lat="44.48345" lon="2.81543">
        <ele>674.02</ele>
        <time>2019-05-04T08:48:04Z</time>
      </trkpt>
      <trkpt lat="44.48309" lon="2.81552">
        <ele>673.54</ele>
        <time>2019-05-04T08:48:22Z</time>
      </trkpt>
      <trkpt lat="44.48283" lon="2.81564">
        <ele>672.58</ele>
        <time>2019-05-04T08:48:34Z</time>
      </trkpt>
      <trkpt lat="44.48263" lon="2.81583">
        <ele>671.62</ele>
        <time>2019-05-04T08:48:47Z</time>
      </trkpt>
      <trkpt lat="44.48256" lon="2.81591">
        <ele>670.66</ele>
        <time>2019-05-04T08:48:53Z</time>
      </trkpt>
      <trkpt lat="44.48262" lon="2.81588">
        <ele>671.14</ele>
        <time>2019-05-04T08:48:59Z</time>
      </trkpt>
      <trkpt lat="44.48287" lon="2.81564">
        <ele>673.06</ele>
        <time>2019-05-04T08:49:13Z</time>
      </trkpt>
      <trkpt lat="44.4831" lon="2.81552">
        <ele>673.06</ele>
        <time>2019-05-04T08:49:24Z</time>
      </trkpt>
      <trkpt lat="44.48329" lon="2.81548">
        <ele>673.54</ele>
        <time>2019-05-04T08:49:32Z</time>
      </trkpt>
      <trkpt lat="44.48356" lon="2.81539">
        <ele>674.02</ele>
        <time>2019-05-04T08:49:45Z</time>
      </trkpt>
      <trkpt lat="44.48387" lon="2.81512">
        <ele>674.02</ele>
        <time>2019-05-04T08:49:57Z</time>
      </trkpt>
      <trkpt lat="44.48413" lon="2.81488">
        <ele>673.54</ele>
        <time>2019-05-04T08:50:05Z</time>
      </trkpt>
      <trkpt lat="44.48427" lon="2.81476">
        <ele>673.54</ele>
        <time>2019-05-04T08:50:10Z</time>
      </trkpt>
      <trkpt lat="44.48435" lon="2.81472">
        <ele>673.54</ele>
        <time>2019-05-04T08:50:12Z</time>
      </trkpt>
      <trkpt lat="44.48464" lon="2.81472">
        <ele>673.54</ele>
        <time>2019-05-04T08:50:18Z</time>
      </trkpt>
      <trkpt lat="44.48473" lon="2.81476">
        <ele>674.02</ele>
        <time>2019-05-04T08:50:20Z</time>
      </trkpt>
      <trkpt lat="44.48514" lon="2.81522">
        <ele>676.42</ele>
        <time>2019-05-04T08:50:33Z</time>
      </trkpt>
      <trkpt lat="44.4855" lon="2.81576">
        <ele>678.35</ele>
        <time>2019-05-04T08:50:46Z</time>
      </trkpt>
      <trkpt lat="44.48558" lon="2.81597">
        <ele>678.83</ele>
        <time>2019-05-04T08:50:50Z</time>
      </trkpt>
      <trkpt lat="44.48572" lon="2.81647">
        <ele>680.75</ele>
        <time>2019-05-04T08:50:59Z</time>
      </trkpt>
      <trkpt lat="44.48578" lon="2.81738">
        <ele>678.83</ele>
        <time>2019-05-04T08:51:13Z</time>
      </trkpt>
      <trkpt lat="44.48579" lon="2.81744">
        <ele>692.29</ele>
        <time>2019-05-04T08:51:14Z</time>
      </trkpt>
      <trkpt lat="44.48579" lon="2.8175">
        <ele>681.23</ele>
        <time>2019-05-04T08:51:15Z</time>
      </trkpt>
      <trkpt lat="44.4858" lon="2.81756">
        <ele>683.15</ele>
        <time>2019-05-04T08:51:16Z</time>
      </trkpt>
      <trkpt lat="44.48585" lon="2.81777">
        <ele>683.15</ele>
        <time>2019-05-04T08:51:20Z</time>
      </trkpt>
      <trkpt lat="44.48589" lon="2.81787">
        <ele>683.15</ele>
        <time>2019-05-04T08:51:22Z</time>
      </trkpt>
      <trkpt lat="44.48596" lon="2.81802">
        <ele>683.63</ele>
        <time>2019-05-04T08:51:25Z</time>
      </trkpt>
      <trkpt lat="44.48598" lon="2.8186">
        <ele>684.12</ele>
        <time>2019-05-04T08:51:34Z</time>
      </trkpt>
      <trkpt lat="44.48595" lon="2.8188">
        <ele>683.63</ele>
        <time>2019-05-04T08:51:37Z</time>
      </trkpt>
      <trkpt lat="44.48585" lon="2.81956">
        <ele>683.15</ele>
        <time>2019-05-04T08:51:48Z</time>
      </trkpt>
      <trkpt lat="44.48607" lon="2.82004">
        <ele>682.67</ele>
        <time>2019-05-04T08:51:56Z</time>
      </trkpt>
      <trkpt lat="44.48656" lon="2.82045">
        <ele>682.67</ele>
        <time>2019-05-04T08:52:06Z</time>
      </trkpt>
      <trkpt lat="44.48688" lon="2.82073">
        <ele>681.71</ele>
        <time>2019-05-04T08:52:13Z</time>
      </trkpt>
      <trkpt lat="44.48704" lon="2.82122">
        <ele>681.23</ele>
        <time>2019-05-04T08:52:21Z</time>
      </trkpt>
      <trkpt lat="44.48722" lon="2.82197">
        <ele>682.67</ele>
        <time>2019-05-04T08:52:36Z</time>
      </trkpt>
      <trkpt lat="44.48739" lon="2.82258">
        <ele>683.15</ele>
        <time>2019-05-04T08:52:49Z</time>
      </trkpt>
      <trkpt lat="44.48767" lon="2.82296">
        <ele>682.67</ele>
        <time>2019-05-04T08:53:06Z</time>
      </trkpt>
      <trkpt lat="44.48782" lon="2.82301">
        <ele>682.67</ele>
        <time>2019-05-04T08:53:16Z</time>
      </trkpt>
      <trkpt lat="44.48789" lon="2.82303">
        <ele>683.15</ele>
        <time>2019-05-04T08:53:21Z</time>
      </trkpt>
      <trkpt lat="44.48801" lon="2.82301">
        <ele>683.15</ele>
        <time>2019-05-04T08:53:33Z</time>
      </trkpt>
      <trkpt lat="44.48789" lon="2.82299">
        <ele>683.15</ele>
        <time>2019-05-04T08:53:39Z</time>
      </trkpt>
      <trkpt lat="44.48768" lon="2.82298">
        <ele>682.19</ele>
        <time>2019-05-04T08:53:49Z</time>
      </trkpt>
      <trkpt lat="44.48746" lon="2.82268">
        <ele>682.67</ele>
        <time>2019-05-04T08:54:06Z</time>
      </trkpt>
      <trkpt lat="44.48744" lon="2.82261">
        <ele>683.15</ele>
        <time>2019-05-04T08:54:10Z</time>
      </trkpt>
      <trkpt lat="44.48745" lon="2.82271">
        <ele>683.15</ele>
        <time>2019-05-04T08:54:16Z</time>
      </trkpt>
      <trkpt lat="44.48752" lon="2.82285">
        <ele>683.15</ele>
        <time>2019-05-04T08:54:19Z</time>
      </trkpt>
      <trkpt lat="44.48769" lon="2.82297">
        <ele>683.15</ele>
        <time>2019-05-04T08:54:23Z</time>
      </trkpt>
      <trkpt lat="44.48811" lon="2.82303">
        <ele>683.63</ele>
        <time>2019-05-04T08:54:32Z</time>
      </trkpt>
      <trkpt lat="44.48838" lon="2.82305">
        <ele>684.12</ele>
        <time>2019-05-04T08:54:38Z</time>
      </trkpt>
      <trkpt lat="44.48855" lon="2.82302">
        <ele>684.12</ele>
        <time>2019-05-04T08:54:42Z</time>
      </trkpt>
      <trkpt lat="44.48903" lon="2.82276">
        <ele>684.6</ele>
        <time>2019-05-04T08:54:55Z</time>
      </trkpt>
      <trkpt lat="44.48907" lon="2.82273">
        <ele>684.12</ele>
        <time>2019-05-04T08:54:56Z</time>
      </trkpt>
      <trkpt lat="44.48927" lon="2.82245">
        <ele>683.15</ele>
        <time>2019-05-04T08:55:02Z</time>
      </trkpt>
      <trkpt lat="44.48938" lon="2.82222">
        <ele>683.63</ele>
        <time>2019-05-04T08:55:06Z</time>
      </trkpt>
      <trkpt lat="44.4896" lon="2.822">
        <ele>684.12</ele>
        <time>2019-05-04T08:55:12Z</time>
      </trkpt>
      <trkpt lat="44.49023" lon="2.82163">
        <ele>686.52</ele>
        <time>2019-05-04T08:55:28Z</time>
      </trkpt>
      <trkpt lat="44.49052" lon="2.82142">
        <ele>688.44</ele>
        <time>2019-05-04T08:55:38Z</time>
      </trkpt>
      <trkpt lat="44.49078" lon="2.82136">
        <ele>689.4</ele>
        <time>2019-05-04T08:55:45Z</time>
      </trkpt>
      <trkpt lat="44.49118" lon="2.82148">
        <ele>692.29</ele>
        <time>2019-05-04T08:55:56Z</time>
      </trkpt>
      <trkpt lat="44.49147" lon="2.8216">
        <ele>695.65</ele>
        <time>2019-05-04T08:56:04Z</time>
      </trkpt>
      <trkpt lat="44.49151" lon="2.82161">
        <ele>695.65</ele>
        <time>2019-05-04T08:56:05Z</time>
      </trkpt>
      <trkpt lat="44.49166" lon="2.82165">
        <ele>697.57</ele>
        <time>2019-05-04T08:56:09Z</time>
      </trkpt>
      <trkpt lat="44.49185" lon="2.82174">
        <ele>700.46</ele>
        <time>2019-05-04T08:56:15Z</time>
      </trkpt>
      <trkpt lat="44.49215" lon="2.82193">
        <ele>702.86</ele>
        <time>2019-05-04T08:56:28Z</time>
      </trkpt>
      <trkpt lat="44.49239" lon="2.82213">
        <ele>703.34</ele>
        <time>2019-05-04T08:56:39Z</time>
      </trkpt>
      <trkpt lat="44.49243" lon="2.82215">
        <ele>703.82</ele>
        <time>2019-05-04T08:56:41Z</time>
      </trkpt>
      <trkpt lat="44.4925" lon="2.82244">
        <ele>705.75</ele>
        <time>2019-05-04T08:56:53Z</time>
      </trkpt>
      <trkpt lat="44.49252" lon="2.8225">
        <ele>706.23</ele>
        <time>2019-05-04T08:56:59Z</time>
      </trkpt>
      <trkpt lat="44.49248" lon="2.82219">
        <ele>704.3</ele>
        <time>2019-05-04T08:57:12Z</time>
      </trkpt>
      <trkpt lat="44.49223" lon="2.82198">
        <ele>701.9</ele>
        <time>2019-05-04T08:57:29Z</time>
      </trkpt>
      <trkpt lat="44.49218" lon="2.82194">
        <ele>701.9</ele>
        <time>2019-05-04T08:57:32Z</time>
      </trkpt>
      <trkpt lat="44.49219" lon="2.822">
        <ele>701.9</ele>
        <time>2019-05-04T08:57:37Z</time>
      </trkpt>
      <trkpt lat="44.49241" lon="2.82212">
        <ele>702.86</ele>
        <time>2019-05-04T08:57:47Z</time>
      </trkpt>
      <trkpt lat="44.49249" lon="2.82219">
        <ele>703.82</ele>
        <time>2019-05-04T08:57:51Z</time>
      </trkpt>
      <trkpt lat="44.49252" lon="2.82237">
        <ele>704.78</ele>
        <time>2019-05-04T08:57:57Z</time>
      </trkpt>
      <trkpt lat="44.49254" lon="2.8224">
        <ele>705.26</ele>
        <time>2019-05-04T08:58:09Z</time>
      </trkpt>
      <trkpt lat="44.49254" lon="2.8224">
        <ele>705.26</ele>
        <time>2019-05-04T08:58:10Z</time>
      </trkpt>
      <trkpt lat="44.49251" lon="2.82249">
        <ele>705.26</ele>
        <time>2019-05-04T08:58:15Z</time>
      </trkpt>
      <trkpt lat="44.49252" lon="2.82284">
        <ele>705.75</ele>
        <time>2019-05-04T08:58:28Z</time>
      </trkpt>
      <trkpt lat="44.49252" lon="2.82286">
        <ele>705.75</ele>
        <time>2019-05-04T08:58:29Z</time>
      </trkpt>
      <trkpt lat="44.49254" lon="2.82288">
        <ele>705.75</ele>
        <time>2019-05-04T08:58:43Z</time>
      </trkpt>
      <trkpt lat="44.49255" lon="2.82286">
        <ele>706.23</ele>
        <time>2019-05-04T08:58:52Z</time>
      </trkpt>
      <trkpt lat="44.49256" lon="2.82283">
        <ele>706.71</ele>
        <time>2019-05-04T08:59:05Z</time>
      </trkpt>
      <trkpt lat="44.49256" lon="2.82283">
        <ele>706.23</ele>
        <time>2019-05-04T08:59:36Z</time>
      </trkpt>
      <trkpt lat="44.49257" lon="2.82283">
        <ele>706.23</ele>
        <time>2019-05-04T09:00:05Z</time>
      </trkpt>
      <trkpt lat="44.49257" lon="2.82283">
        <ele>706.23</ele>
        <time>2019-05-04T09:00:14Z</time>
      </trkpt>
      <trkpt lat="44.49254" lon="2.82301">
        <ele>705.75</ele>
        <time>2019-05-04T09:00:19Z</time>
      </trkpt>
      <trkpt lat="44.49262" lon="2.82334">
        <ele>703.82</ele>
        <time>2019-05-04T09:00:24Z</time>
      </trkpt>
      <trkpt lat="44.49292" lon="2.82373">
        <ele>699.5</ele>
        <time>2019-05-04T09:00:30Z</time>
      </trkpt>
      <trkpt lat="44.49315" lon="2.82377">
        <ele>698.53</ele>
        <time>2019-05-04T09:00:33Z</time>
      </trkpt>
      <trkpt lat="44.49337" lon="2.82377">
        <ele>696.13</ele>
        <time>2019-05-04T09:00:36Z</time>
      </trkpt>
      <trkpt lat="44.49364" lon="2.82337">
        <ele>692.77</ele>
        <time>2019-05-04T09:00:42Z</time>
      </trkpt>
      <trkpt lat="44.49359" lon="2.82292">
        <ele>689.4</ele>
        <time>2019-05-04T09:00:46Z</time>
      </trkpt>
      <trkpt lat="44.4935" lon="2.8226">
        <ele>685.56</ele>
        <time>2019-05-04T09:00:49Z</time>
      </trkpt>
      <trkpt lat="44.49337" lon="2.82214">
        <ele>682.67</ele>
        <time>2019-05-04T09:00:53Z</time>
      </trkpt>
      <trkpt lat="44.4933" lon="2.82189">
        <ele>681.23</ele>
        <time>2019-05-04T09:00:55Z</time>
      </trkpt>
      <trkpt lat="44.49309" lon="2.82142">
        <ele>677.87</ele>
        <time>2019-05-04T09:00:59Z</time>
      </trkpt>
      <trkpt lat="44.493" lon="2.82073">
        <ele>672.58</ele>
        <time>2019-05-04T09:01:04Z</time>
      </trkpt>
      <trkpt lat="44.49307" lon="2.82028">
        <ele>670.18</ele>
        <time>2019-05-04T09:01:07Z</time>
      </trkpt>
      <trkpt lat="44.49319" lon="2.81975">
        <ele>667.29</ele>
        <time>2019-05-04T09:01:11Z</time>
      </trkpt>
      <trkpt lat="44.49323" lon="2.81962">
        <ele>666.81</ele>
        <time>2019-05-04T09:01:12Z</time>
      </trkpt>
      <trkpt lat="44.49343" lon="2.81913">
        <ele>662.49</ele>
        <time>2019-05-04T09:01:16Z</time>
      </trkpt>
      <trkpt lat="44.49356" lon="2.81859">
        <ele>657.68</ele>
        <time>2019-05-04T09:01:20Z</time>
      </trkpt>
      <trkpt lat="44.49357" lon="2.81844">
        <ele>656.24</ele>
        <time>2019-05-04T09:01:21Z</time>
      </trkpt>
      <trkpt lat="44.49356" lon="2.81769">
        <ele>651.43</ele>
        <time>2019-05-04T09:01:26Z</time>
      </trkpt>
      <trkpt lat="44.49352" lon="2.81724">
        <ele>648.55</ele>
        <time>2019-05-04T09:01:29Z</time>
      </trkpt>
      <trkpt lat="44.49356" lon="2.81664">
        <ele>644.7</ele>
        <time>2019-05-04T09:01:33Z</time>
      </trkpt>
      <trkpt lat="44.49369" lon="2.8159">
        <ele>639.89</ele>
        <time>2019-05-04T09:01:38Z</time>
      </trkpt>
      <trkpt lat="44.49376" lon="2.81546">
        <ele>636.53</ele>
        <time>2019-05-04T09:01:41Z</time>
      </trkpt>
      <trkpt lat="44.4938" lon="2.81502">
        <ele>633.17</ele>
        <time>2019-05-04T09:01:44Z</time>
      </trkpt>
      <trkpt lat="44.49382" lon="2.81474">
        <ele>631.72</ele>
        <time>2019-05-04T09:01:46Z</time>
      </trkpt>
      <trkpt lat="44.49395" lon="2.8142">
        <ele>628.84</ele>
        <time>2019-05-04T09:01:50Z</time>
      </trkpt>
      <trkpt lat="44.49398" lon="2.81364">
        <ele>624.03</ele>
        <time>2019-05-04T09:01:54Z</time>
      </trkpt>
      <trkpt lat="44.49398" lon="2.81306">
        <ele>620.67</ele>
        <time>2019-05-04T09:01:58Z</time>
      </trkpt>
      <trkpt lat="44.49398" lon="2.81292">
        <ele>619.23</ele>
        <time>2019-05-04T09:01:59Z</time>
      </trkpt>
      <trkpt lat="44.49408" lon="2.81239">
        <ele>616.82</ele>
        <time>2019-05-04T09:02:03Z</time>
      </trkpt>
      <trkpt lat="44.4943" lon="2.81199">
        <ele>612.5</ele>
        <time>2019-05-04T09:02:07Z</time>
      </trkpt>
      <trkpt lat="44.49468" lon="2.81178">
        <ele>609.61</ele>
        <time>2019-05-04T09:02:12Z</time>
      </trkpt>
      <trkpt lat="44.49492" lon="2.81152">
        <ele>606.25</ele>
        <time>2019-05-04T09:02:17Z</time>
      </trkpt>
      <trkpt lat="44.49498" lon="2.81138">
        <ele>605.29</ele>
        <time>2019-05-04T09:02:20Z</time>
      </trkpt>
      <trkpt lat="44.49502" lon="2.8113">
        <ele>603.85</ele>
        <time>2019-05-04T09:02:32Z</time>
      </trkpt>
      <trkpt lat="44.49502" lon="2.8113">
        <ele>603.36</ele>
        <time>2019-05-04T09:03:10Z</time>
      </trkpt>
      <trkpt lat="44.49503" lon="2.81125">
        <ele>603.85</ele>
        <time>2019-05-04T09:03:35Z</time>
      </trkpt>
      <trkpt lat="44.49508" lon="2.81112">
        <ele>602.88</ele>
        <time>2019-05-04T09:03:38Z</time>
      </trkpt>
      <trkpt lat="44.49531" lon="2.8106">
        <ele>600.48</ele>
        <time>2019-05-04T09:03:45Z</time>
      </trkpt>
      <trkpt lat="44.49537" lon="2.8102">
        <ele>596.64</ele>
        <time>2019-05-04T09:03:49Z</time>
      </trkpt>
      <trkpt lat="44.49539" lon="2.80937">
        <ele>591.83</ele>
        <time>2019-05-04T09:03:56Z</time>
      </trkpt>
      <trkpt lat="44.49542" lon="2.80884">
        <ele>588.46</ele>
        <time>2019-05-04T09:04:00Z</time>
      </trkpt>
      <trkpt lat="44.4955" lon="2.80829">
        <ele>585.1</ele>
        <time>2019-05-04T09:04:04Z</time>
      </trkpt>
      <trkpt lat="44.49569" lon="2.80778">
        <ele>580.77</ele>
        <time>2019-05-04T09:04:08Z</time>
      </trkpt>
      <trkpt lat="44.49577" lon="2.80768">
        <ele>579.33</ele>
        <time>2019-05-04T09:04:09Z</time>
      </trkpt>
      <trkpt lat="44.4961" lon="2.80698">
        <ele>574.53</ele>
        <time>2019-05-04T09:04:15Z</time>
      </trkpt>
      <trkpt lat="44.49621" lon="2.80659">
        <ele>570.68</ele>
        <time>2019-05-04T09:04:18Z</time>
      </trkpt>
      <trkpt lat="44.49627" lon="2.80632">
        <ele>568.76</ele>
        <time>2019-05-04T09:04:20Z</time>
      </trkpt>
      <trkpt lat="44.49626" lon="2.80575">
        <ele>565.87</ele>
        <time>2019-05-04T09:04:24Z</time>
      </trkpt>
      <trkpt lat="44.49622" lon="2.80549">
        <ele>564.43</ele>
        <time>2019-05-04T09:04:26Z</time>
      </trkpt>
      <trkpt lat="44.4962" lon="2.80537">
        <ele>563.95</ele>
        <time>2019-05-04T09:04:27Z</time>
      </trkpt>
      <trkpt lat="44.49633" lon="2.805">
        <ele>560.11</ele>
        <time>2019-05-04T09:04:31Z</time>
      </trkpt>
      <trkpt lat="44.4966" lon="2.80457">
        <ele>555.3</ele>
        <time>2019-05-04T09:04:36Z</time>
      </trkpt>
      <trkpt lat="44.49682" lon="2.80413">
        <ele>552.41</ele>
        <time>2019-05-04T09:04:40Z</time>
      </trkpt>
      <trkpt lat="44.49681" lon="2.80363">
        <ele>548.57</ele>
        <time>2019-05-04T09:04:45Z</time>
      </trkpt>
      <trkpt lat="44.49674" lon="2.80355">
        <ele>547.61</ele>
        <time>2019-05-04T09:04:46Z</time>
      </trkpt>
      <trkpt lat="44.49661" lon="2.80343">
        <ele>546.17</ele>
        <time>2019-05-04T09:04:48Z</time>
      </trkpt>
      <trkpt lat="44.49651" lon="2.80329">
        <ele>545.2</ele>
        <time>2019-05-04T09:04:50Z</time>
      </trkpt>
      <trkpt lat="44.49662" lon="2.80305">
        <ele>542.32</ele>
        <time>2019-05-04T09:04:55Z</time>
      </trkpt>
      <trkpt lat="44.49672" lon="2.80315">
        <ele>541.36</ele>
        <time>2019-05-04T09:04:57Z</time>
      </trkpt>
      <trkpt lat="44.49683" lon="2.80326">
        <ele>539.92</ele>
        <time>2019-05-04T09:04:59Z</time>
      </trkpt>
      <trkpt lat="44.49711" lon="2.80347">
        <ele>537.99</ele>
        <time>2019-05-04T09:05:03Z</time>
      </trkpt>
      <trkpt lat="44.49723" lon="2.80399">
        <ele>533.67</ele>
        <time>2019-05-04T09:05:08Z</time>
      </trkpt>
      <trkpt lat="44.49719" lon="2.80411">
        <ele>533.67</ele>
        <time>2019-05-04T09:05:09Z</time>
      </trkpt>
      <trkpt lat="44.49709" lon="2.80435">
        <ele>531.75</ele>
        <time>2019-05-04T09:05:11Z</time>
      </trkpt>
      <trkpt lat="44.49696" lon="2.80477">
        <ele>530.3</ele>
        <time>2019-05-04T09:05:14Z</time>
      </trkpt>
      <trkpt lat="44.49711" lon="2.80537">
        <ele>525.5</ele>
        <time>2019-05-04T09:05:20Z</time>
      </trkpt>
      <trkpt lat="44.49744" lon="2.8058">
        <ele>521.17</ele>
        <time>2019-05-04T09:05:25Z</time>
      </trkpt>
      <trkpt lat="44.49764" lon="2.8061">
        <ele>518.77</ele>
        <time>2019-05-04T09:05:28Z</time>
      </trkpt>
      <trkpt lat="44.49783" lon="2.8068">
        <ele>514.92</ele>
        <time>2019-05-04T09:05:33Z</time>
      </trkpt>
      <trkpt lat="44.49794" lon="2.80741">
        <ele>512.04</ele>
        <time>2019-05-04T09:05:37Z</time>
      </trkpt>
      <trkpt lat="44.49802" lon="2.80786">
        <ele>508.67</ele>
        <time>2019-05-04T09:05:40Z</time>
      </trkpt>
      <trkpt lat="44.49811" lon="2.80863">
        <ele>503.87</ele>
        <time>2019-05-04T09:05:45Z</time>
      </trkpt>
      <trkpt lat="44.49821" lon="2.80921">
        <ele>500.02</ele>
        <time>2019-05-04T09:05:49Z</time>
      </trkpt>
      <trkpt lat="44.49831" lon="2.80961">
        <ele>498.1</ele>
        <time>2019-05-04T09:05:52Z</time>
      </trkpt>
      <trkpt lat="44.49834" lon="2.80974">
        <ele>497.62</ele>
        <time>2019-05-04T09:05:53Z</time>
      </trkpt>
      <trkpt lat="44.49871" lon="2.81017">
        <ele>494.74</ele>
        <time>2019-05-04T09:05:59Z</time>
      </trkpt>
      <trkpt lat="44.49889" lon="2.81011">
        <ele>493.77</ele>
        <time>2019-05-04T09:06:01Z</time>
      </trkpt>
      <trkpt lat="44.49937" lon="2.81017">
        <ele>488.01</ele>
        <time>2019-05-04T09:06:07Z</time>
      </trkpt>
      <trkpt lat="44.49945" lon="2.81036">
        <ele>486.56</ele>
        <time>2019-05-04T09:06:09Z</time>
      </trkpt>
      <trkpt lat="44.49962" lon="2.81083">
        <ele>484.16</ele>
        <time>2019-05-04T09:06:13Z</time>
      </trkpt>
      <trkpt lat="44.4996" lon="2.81144">
        <ele>478.87</ele>
        <time>2019-05-04T09:06:18Z</time>
      </trkpt>
      <trkpt lat="44.49934" lon="2.81189">
        <ele>476.47</ele>
        <time>2019-05-04T09:06:22Z</time>
      </trkpt>
      <trkpt lat="44.49918" lon="2.81206">
        <ele>475.03</ele>
        <time>2019-05-04T09:06:24Z</time>
      </trkpt>
      <trkpt lat="44.49909" lon="2.81254">
        <ele>471.18</ele>
        <time>2019-05-04T09:06:29Z</time>
      </trkpt>
      <trkpt lat="44.49918" lon="2.81273">
        <ele>470.22</ele>
        <time>2019-05-04T09:06:31Z</time>
      </trkpt>
      <trkpt lat="44.49925" lon="2.81296">
        <ele>468.78</ele>
        <time>2019-05-04T09:06:33Z</time>
      </trkpt>
      <trkpt lat="44.49931" lon="2.81319">
        <ele>466.86</ele>
        <time>2019-05-04T09:06:35Z</time>
      </trkpt>
      <trkpt lat="44.4997" lon="2.81337">
        <ele>463.49</ele>
        <time>2019-05-04T09:06:41Z</time>
      </trkpt>
      <trkpt lat="44.4999" lon="2.81316">
        <ele>461.57</ele>
        <time>2019-05-04T09:06:44Z</time>
      </trkpt>
      <trkpt lat="44.50003" lon="2.81297">
        <ele>460.13</ele>
        <time>2019-05-04T09:06:46Z</time>
      </trkpt>
      <trkpt lat="44.50045" lon="2.81265">
        <ele>456.28</ele>
        <time>2019-05-04T09:06:51Z</time>
      </trkpt>
      <trkpt lat="44.50083" lon="2.81257">
        <ele>452.92</ele>
        <time>2019-05-04T09:06:55Z</time>
      </trkpt>
      <trkpt lat="44.50111" lon="2.81262">
        <ele>451</ele>
        <time>2019-05-04T09:06:58Z</time>
      </trkpt>
      <trkpt lat="44.50132" lon="2.81262">
        <ele>450.52</ele>
        <time>2019-05-04T09:07:00Z</time>
      </trkpt>
      <trkpt lat="44.50173" lon="2.81268">
        <ele>446.19</ele>
        <time>2019-05-04T09:07:04Z</time>
      </trkpt>
      <trkpt lat="44.50193" lon="2.81272">
        <ele>445.23</ele>
        <time>2019-05-04T09:07:06Z</time>
      </trkpt>
      <trkpt lat="44.50237" lon="2.81286">
        <ele>440.9</ele>
        <time>2019-05-04T09:07:11Z</time>
      </trkpt>
      <trkpt lat="44.50253" lon="2.81275">
        <ele>440.42</ele>
        <time>2019-05-04T09:07:13Z</time>
      </trkpt>
      <trkpt lat="44.50277" lon="2.81254">
        <ele>437.54</ele>
        <time>2019-05-04T09:07:16Z</time>
      </trkpt>
      <trkpt lat="44.50334" lon="2.81218">
        <ele>433.21</ele>
        <time>2019-05-04T09:07:22Z</time>
      </trkpt>
      <trkpt lat="44.50343" lon="2.81212">
        <ele>432.73</ele>
        <time>2019-05-04T09:07:23Z</time>
      </trkpt>
      <trkpt lat="44.50367" lon="2.8119">
        <ele>429.37</ele>
        <time>2019-05-04T09:07:26Z</time>
      </trkpt>
      <trkpt lat="44.50398" lon="2.81186">
        <ele>425.52</ele>
        <time>2019-05-04T09:07:30Z</time>
      </trkpt>
      <trkpt lat="44.50406" lon="2.81191">
        <ele>425.04</ele>
        <time>2019-05-04T09:07:31Z</time>
      </trkpt>
      <trkpt lat="44.5043" lon="2.81211">
        <ele>422.64</ele>
        <time>2019-05-04T09:07:34Z</time>
      </trkpt>
      <trkpt lat="44.50457" lon="2.81248">
        <ele>419.27</ele>
        <time>2019-05-04T09:07:38Z</time>
      </trkpt>
      <trkpt lat="44.50466" lon="2.81272">
        <ele>418.31</ele>
        <time>2019-05-04T09:07:40Z</time>
      </trkpt>
      <trkpt lat="44.5051" lon="2.81306">
        <ele>413.5</ele>
        <time>2019-05-04T09:07:46Z</time>
      </trkpt>
      <trkpt lat="44.50525" lon="2.81296">
        <ele>412.06</ele>
        <time>2019-05-04T09:07:48Z</time>
      </trkpt>
      <trkpt lat="44.50559" lon="2.8127">
        <ele>408.7</ele>
        <time>2019-05-04T09:07:52Z</time>
      </trkpt>
      <trkpt lat="44.50584" lon="2.81265">
        <ele>403.89</ele>
        <time>2019-05-04T09:07:55Z</time>
      </trkpt>
      <trkpt lat="44.50606" lon="2.81289">
        <ele>401.01</ele>
        <time>2019-05-04T09:07:58Z</time>
      </trkpt>
      <trkpt lat="44.50625" lon="2.81321">
        <ele>399.08</ele>
        <time>2019-05-04T09:08:01Z</time>
      </trkpt>
      <trkpt lat="44.50643" lon="2.81374">
        <ele>394.76</ele>
        <time>2019-05-04T09:08:05Z</time>
      </trkpt>
      <trkpt lat="44.50678" lon="2.81417">
        <ele>390.91</ele>
        <time>2019-05-04T09:08:10Z</time>
      </trkpt>
      <trkpt lat="44.50724" lon="2.81449">
        <ele>387.55</ele>
        <time>2019-05-04T09:08:15Z</time>
      </trkpt>
      <trkpt lat="44.50758" lon="2.81499">
        <ele>382.26</ele>
        <time>2019-05-04T09:08:20Z</time>
      </trkpt>
      <trkpt lat="44.50783" lon="2.81539">
        <ele>378.42</ele>
        <time>2019-05-04T09:08:24Z</time>
      </trkpt>
      <trkpt lat="44.50792" lon="2.81574">
        <ele>375.53</ele>
        <time>2019-05-04T09:08:27Z</time>
      </trkpt>
      <trkpt lat="44.50796" lon="2.81613">
        <ele>373.61</ele>
        <time>2019-05-04T09:08:30Z</time>
      </trkpt>
      <trkpt lat="44.50803" lon="2.81639">
        <ele>372.17</ele>
        <time>2019-05-04T09:08:32Z</time>
      </trkpt>
      <trkpt lat="44.50836" lon="2.81731">
        <ele>367.36</ele>
        <time>2019-05-04T09:08:39Z</time>
      </trkpt>
      <trkpt lat="44.50863" lon="2.81803">
        <ele>363.04</ele>
        <time>2019-05-04T09:08:45Z</time>
      </trkpt>
      <trkpt lat="44.50867" lon="2.81815">
        <ele>362.55</ele>
        <time>2019-05-04T09:08:46Z</time>
      </trkpt>
      <trkpt lat="44.50907" lon="2.81834">
        <ele>360.15</ele>
        <time>2019-05-04T09:08:51Z</time>
      </trkpt>
      <trkpt lat="44.5096" lon="2.81809">
        <ele>357.27</ele>
        <time>2019-05-04T09:08:58Z</time>
      </trkpt>
      <trkpt lat="44.50977" lon="2.8179">
        <ele>356.31</ele>
        <time>2019-05-04T09:09:02Z</time>
      </trkpt>
      <trkpt lat="44.51005" lon="2.81734">
        <ele>355.83</ele>
        <time>2019-05-04T09:09:10Z</time>
      </trkpt>
      <trkpt lat="44.51012" lon="2.81721">
        <ele>355.83</ele>
        <time>2019-05-04T09:09:12Z</time>
      </trkpt>
      <trkpt lat="44.51079" lon="2.81646">
        <ele>355.34</ele>
        <time>2019-05-04T09:09:28Z</time>
      </trkpt>
      <trkpt lat="44.5116" lon="2.81614">
        <ele>355.34</ele>
        <time>2019-05-04T09:09:44Z</time>
      </trkpt>
      <trkpt lat="44.51235" lon="2.81622">
        <ele>355.83</ele>
        <time>2019-05-04T09:09:59Z</time>
      </trkpt>
      <trkpt lat="44.51243" lon="2.81625">
        <ele>356.31</ele>
        <time>2019-05-04T09:10:01Z</time>
      </trkpt>
      <trkpt lat="44.51289" lon="2.81638">
        <ele>358.71</ele>
        <time>2019-05-04T09:10:11Z</time>
      </trkpt>
      <trkpt lat="44.51358" lon="2.81662">
        <ele>360.63</ele>
        <time>2019-05-04T09:10:25Z</time>
      </trkpt>
      <trkpt lat="44.51384" lon="2.81657">
        <ele>360.63</ele>
        <time>2019-05-04T09:10:35Z</time>
      </trkpt>
      <trkpt lat="44.51389" lon="2.81651">
        <ele>361.11</ele>
        <time>2019-05-04T09:10:38Z</time>
      </trkpt>
      <trkpt lat="44.51391" lon="2.81643">
        <ele>361.59</ele>
        <time>2019-05-04T09:10:42Z</time>
      </trkpt>
      <trkpt lat="44.51388" lon="2.81655">
        <ele>361.11</ele>
        <time>2019-05-04T09:10:52Z</time>
      </trkpt>
      <trkpt lat="44.5139" lon="2.81655">
        <ele>361.11</ele>
        <time>2019-05-04T09:10:53Z</time>
      </trkpt>
      <trkpt lat="44.51401" lon="2.81655">
        <ele>364.48</ele>
        <time>2019-05-04T09:10:57Z</time>
      </trkpt>
      <trkpt lat="44.51406" lon="2.81643">
        <ele>365.44</ele>
        <time>2019-05-04T09:11:03Z</time>
      </trkpt>
      <trkpt lat="44.51408" lon="2.81637">
        <ele>365.92</ele>
        <time>2019-05-04T09:11:06Z</time>
      </trkpt>
      <trkpt lat="44.51414" lon="2.81621">
        <ele>367.36</ele>
        <time>2019-05-04T09:11:17Z</time>
      </trkpt>
      <trkpt lat="44.5142" lon="2.81613">
        <ele>368.32</ele>
        <time>2019-05-04T09:11:27Z</time>
      </trkpt>
      <trkpt lat="44.5142" lon="2.81611">
        <ele>368.32</ele>
        <time>2019-05-04T09:11:28Z</time>
      </trkpt>
      <trkpt lat="44.5143" lon="2.81588">
        <ele>370.73</ele>
        <time>2019-05-04T09:11:39Z</time>
      </trkpt>
      <trkpt lat="44.51432" lon="2.81583">
        <ele>370.73</ele>
        <time>2019-05-04T09:11:41Z</time>
      </trkpt>
      <trkpt lat="44.5144" lon="2.81565">
        <ele>371.69</ele>
        <time>2019-05-04T09:11:46Z</time>
      </trkpt>
      <trkpt lat="44.51447" lon="2.81539">
        <ele>372.65</ele>
        <time>2019-05-04T09:11:52Z</time>
      </trkpt>
      <trkpt lat="44.51457" lon="2.81515">
        <ele>373.13</ele>
        <time>2019-05-04T09:12:03Z</time>
      </trkpt>
      <trkpt lat="44.51452" lon="2.81516">
        <ele>372.65</ele>
        <time>2019-05-04T09:12:07Z</time>
      </trkpt>
      <trkpt lat="44.5145" lon="2.81524">
        <ele>372.65</ele>
        <time>2019-05-04T09:12:12Z</time>
      </trkpt>
      <trkpt lat="44.51449" lon="2.8153">
        <ele>372.65</ele>
        <time>2019-05-04T09:12:18Z</time>
      </trkpt>
      <trkpt lat="44.51453" lon="2.81523">
        <ele>372.65</ele>
        <time>2019-05-04T09:12:23Z</time>
      </trkpt>
      <trkpt lat="44.51451" lon="2.81521">
        <ele>372.65</ele>
        <time>2019-05-04T09:12:25Z</time>
      </trkpt>
      <trkpt lat="44.51449" lon="2.81525">
        <ele>372.65</ele>
        <time>2019-05-04T09:12:28Z</time>
      </trkpt>
      <trkpt lat="44.51451" lon="2.81525">
        <ele>372.17</ele>
        <time>2019-05-04T09:12:33Z</time>
      </trkpt>
      <trkpt lat="44.51453" lon="2.81522">
        <ele>372.65</ele>
        <time>2019-05-04T09:12:35Z</time>
      </trkpt>
      <trkpt lat="44.51458" lon="2.8151">
        <ele>372.65</ele>
        <time>2019-05-04T09:12:40Z</time>
      </trkpt>
      <trkpt lat="44.5148" lon="2.81467">
        <ele>373.13</ele>
        <time>2019-05-04T09:12:56Z</time>
      </trkpt>
      <trkpt lat="44.51482" lon="2.81462">
        <ele>373.61</ele>
        <time>2019-05-04T09:13:00Z</time>
      </trkpt>
      <trkpt lat="44.51498" lon="2.81444">
        <ele>374.57</ele>
        <time>2019-05-04T09:13:10Z</time>
      </trkpt>
      <trkpt lat="44.515" lon="2.81443">
        <ele>374.57</ele>
        <time>2019-05-04T09:13:11Z</time>
      </trkpt>
      <trkpt lat="44.51517" lon="2.8144">
        <ele>375.05</ele>
        <time>2019-05-04T09:13:19Z</time>
      </trkpt>
      <trkpt lat="44.51524" lon="2.81446">
        <ele>375.53</ele>
        <time>2019-05-04T09:13:23Z</time>
      </trkpt>
      <trkpt lat="44.51527" lon="2.81453">
        <ele>375.53</ele>
        <time>2019-05-04T09:13:28Z</time>
      </trkpt>
      <trkpt lat="44.5153" lon="2.81459">
        <ele>375.53</ele>
        <time>2019-05-04T09:13:34Z</time>
      </trkpt>
      <trkpt lat="44.51547" lon="2.81452">
        <ele>376.01</ele>
        <time>2019-05-04T09:13:39Z</time>
      </trkpt>
      <trkpt lat="44.51551" lon="2.8145">
        <ele>376.01</ele>
        <time>2019-05-04T09:13:42Z</time>
      </trkpt>
      <trkpt lat="44.51549" lon="2.8145">
        <ele>376.49</ele>
        <time>2019-05-04T09:13:44Z</time>
      </trkpt>
      <trkpt lat="44.51545" lon="2.81463">
        <ele>376.49</ele>
        <time>2019-05-04T09:13:50Z</time>
      </trkpt>
      <trkpt lat="44.51546" lon="2.8147">
        <ele>376.01</ele>
        <time>2019-05-04T09:13:53Z</time>
      </trkpt>
      <trkpt lat="44.51553" lon="2.81484">
        <ele>375.53</ele>
        <time>2019-05-04T09:14:00Z</time>
      </trkpt>
      <trkpt lat="44.51556" lon="2.81507">
        <ele>375.05</ele>
        <time>2019-05-04T09:14:12Z</time>
      </trkpt>
      <trkpt lat="44.51556" lon="2.81508">
        <ele>375.05</ele>
        <time>2019-05-04T09:14:13Z</time>
      </trkpt>
      <trkpt lat="44.51552" lon="2.81524">
        <ele>375.05</ele>
        <time>2019-05-04T09:14:19Z</time>
      </trkpt>
      <trkpt lat="44.51532" lon="2.81522">
        <ele>376.97</ele>
        <time>2019-05-04T09:14:32Z</time>
      </trkpt>
      <trkpt lat="44.5153" lon="2.81522">
        <ele>376.97</ele>
        <time>2019-05-04T09:14:33Z</time>
      </trkpt>
      <trkpt lat="44.51529" lon="2.81521">
        <ele>376.49</ele>
        <time>2019-05-04T09:14:34Z</time>
      </trkpt>
      <trkpt lat="44.5152" lon="2.81504">
        <ele>376.97</ele>
        <time>2019-05-04T09:14:45Z</time>
      </trkpt>
      <trkpt lat="44.51514" lon="2.81479">
        <ele>376.97</ele>
        <time>2019-05-04T09:14:56Z</time>
      </trkpt>
      <trkpt lat="44.51516" lon="2.81467">
        <ele>376.01</ele>
        <time>2019-05-04T09:15:00Z</time>
      </trkpt>
      <trkpt lat="44.51517" lon="2.81461">
        <ele>375.53</ele>
        <time>2019-05-04T09:15:02Z</time>
      </trkpt>
      <trkpt lat="44.51524" lon="2.81438">
        <ele>375.05</ele>
        <time>2019-05-04T09:15:12Z</time>
      </trkpt>
      <trkpt lat="44.51524" lon="2.81431">
        <ele>374.57</ele>
        <time>2019-05-04T09:15:15Z</time>
      </trkpt>
      <trkpt lat="44.51527" lon="2.81427">
        <ele>374.09</ele>
        <time>2019-05-04T09:15:26Z</time>
      </trkpt>
      <trkpt lat="44.51526" lon="2.81425">
        <ele>374.57</ele>
        <time>2019-05-04T09:15:37Z</time>
      </trkpt>
      <trkpt lat="44.51556" lon="2.81382">
        <ele>374.57</ele>
        <time>2019-05-04T09:31:32Z</time>
      </trkpt>
      <trkpt lat="44.51568" lon="2.81382">
        <ele>376.49</ele>
        <time>2019-05-04T09:31:39Z</time>
      </trkpt>
      <trkpt lat="44.51571" lon="2.81425">
        <ele>377.94</ele>
        <time>2019-05-04T09:31:53Z</time>
      </trkpt>
      <trkpt lat="44.51572" lon="2.81426">
        <ele>376.01</ele>
        <time>2019-05-04T09:32:14Z</time>
      </trkpt>
      <trkpt lat="44.51576" lon="2.81426">
        <ele>376.49</ele>
        <time>2019-05-04T09:32:17Z</time>
      </trkpt>
      <trkpt lat="44.51578" lon="2.81422">
        <ele>376.49</ele>
        <time>2019-05-04T09:32:19Z</time>
      </trkpt>
      <trkpt lat="44.51588" lon="2.81359">
        <ele>376.49</ele>
        <time>2019-05-04T09:32:32Z</time>
      </trkpt>
      <trkpt lat="44.51604" lon="2.81263">
        <ele>376.01</ele>
        <time>2019-05-04T09:32:46Z</time>
      </trkpt>
      <trkpt lat="44.51624" lon="2.81144">
        <ele>375.53</ele>
        <time>2019-05-04T09:33:02Z</time>
      </trkpt>
      <trkpt lat="44.51645" lon="2.81011">
        <ele>374.57</ele>
        <time>2019-05-04T09:33:20Z</time>
      </trkpt>
      <trkpt lat="44.51667" lon="2.80875">
        <ele>375.05</ele>
        <time>2019-05-04T09:33:38Z</time>
      </trkpt>
      <trkpt lat="44.51681" lon="2.80721">
        <ele>372.65</ele>
        <time>2019-05-04T09:33:57Z</time>
      </trkpt>
      <trkpt lat="44.51667" lon="2.80603">
        <ele>372.17</ele>
        <time>2019-05-04T09:34:12Z</time>
      </trkpt>
      <trkpt lat="44.51633" lon="2.80492">
        <ele>370.73</ele>
        <time>2019-05-04T09:34:27Z</time>
      </trkpt>
      <trkpt lat="44.51583" lon="2.80347">
        <ele>369.76</ele>
        <time>2019-05-04T09:34:46Z</time>
      </trkpt>
      <trkpt lat="44.51569" lon="2.80224">
        <ele>369.28</ele>
        <time>2019-05-04T09:35:01Z</time>
      </trkpt>
      <trkpt lat="44.51588" lon="2.80099">
        <ele>368.8</ele>
        <time>2019-05-04T09:35:16Z</time>
      </trkpt>
      <trkpt lat="44.51611" lon="2.79983">
        <ele>369.76</ele>
        <time>2019-05-04T09:35:31Z</time>
      </trkpt>
      <trkpt lat="44.51611" lon="2.7984">
        <ele>366.88</ele>
        <time>2019-05-04T09:35:49Z</time>
      </trkpt>
      <trkpt lat="44.51607" lon="2.79807">
        <ele>367.36</ele>
        <time>2019-05-04T09:35:53Z</time>
      </trkpt>
      <trkpt lat="44.51598" lon="2.79688">
        <ele>366.4</ele>
        <time>2019-05-04T09:36:08Z</time>
      </trkpt>
      <trkpt lat="44.51606" lon="2.79556">
        <ele>365.44</ele>
        <time>2019-05-04T09:36:24Z</time>
      </trkpt>
      <trkpt lat="44.51629" lon="2.79424">
        <ele>364</ele>
        <time>2019-05-04T09:36:40Z</time>
      </trkpt>
      <trkpt lat="44.51659" lon="2.79283">
        <ele>360.63</ele>
        <time>2019-05-04T09:36:56Z</time>
      </trkpt>
      <trkpt lat="44.51661" lon="2.79272">
        <ele>360.63</ele>
        <time>2019-05-04T09:36:57Z</time>
      </trkpt>
      <trkpt lat="44.51668" lon="2.79229">
        <ele>357.75</ele>
        <time>2019-05-04T09:37:01Z</time>
      </trkpt>
      <trkpt lat="44.5167" lon="2.79218">
        <ele>357.75</ele>
        <time>2019-05-04T09:37:02Z</time>
      </trkpt>
      <trkpt lat="44.51675" lon="2.79181">
        <ele>354.38</ele>
        <time>2019-05-04T09:37:05Z</time>
      </trkpt>
      <trkpt lat="44.51681" lon="2.79144">
        <ele>352.94</ele>
        <time>2019-05-04T09:37:08Z</time>
      </trkpt>
      <trkpt lat="44.51689" lon="2.79107">
        <ele>350.54</ele>
        <time>2019-05-04T09:37:11Z</time>
      </trkpt>
      <trkpt lat="44.51724" lon="2.78993">
        <ele>347.65</ele>
        <time>2019-05-04T09:37:22Z</time>
      </trkpt>
      <trkpt lat="44.51763" lon="2.78856">
        <ele>346.69</ele>
        <time>2019-05-04T09:37:38Z</time>
      </trkpt>
      <trkpt lat="44.51795" lon="2.78735">
        <ele>346.69</ele>
        <time>2019-05-04T09:37:53Z</time>
      </trkpt>
      <trkpt lat="44.5184" lon="2.78597">
        <ele>345.25</ele>
        <time>2019-05-04T09:38:11Z</time>
      </trkpt>
      <trkpt lat="44.51879" lon="2.78472">
        <ele>344.29</ele>
        <time>2019-05-04T09:38:27Z</time>
      </trkpt>
      <trkpt lat="44.51917" lon="2.78348">
        <ele>344.29</ele>
        <time>2019-05-04T09:38:44Z</time>
      </trkpt>
      <trkpt lat="44.51952" lon="2.78242">
        <ele>343.81</ele>
        <time>2019-05-04T09:38:59Z</time>
      </trkpt>
      <trkpt lat="44.51991" lon="2.78119">
        <ele>344.29</ele>
        <time>2019-05-04T09:39:16Z</time>
      </trkpt>
      <trkpt lat="44.52012" lon="2.78058">
        <ele>344.77</ele>
        <time>2019-05-04T09:39:25Z</time>
      </trkpt>
      <trkpt lat="44.52048" lon="2.7797">
        <ele>345.25</ele>
        <time>2019-05-04T09:39:39Z</time>
      </trkpt>
      <trkpt lat="44.52098" lon="2.77847">
        <ele>346.21</ele>
        <time>2019-05-04T09:39:58Z</time>
      </trkpt>
      <trkpt lat="44.52156" lon="2.7773">
        <ele>345.25</ele>
        <time>2019-05-04T09:40:16Z</time>
      </trkpt>
      <trkpt lat="44.52196" lon="2.77652">
        <ele>345.25</ele>
        <time>2019-05-04T09:40:28Z</time>
      </trkpt>
      <trkpt lat="44.52249" lon="2.77532">
        <ele>346.21</ele>
        <time>2019-05-04T09:40:46Z</time>
      </trkpt>
      <trkpt lat="44.52279" lon="2.77411">
        <ele>344.77</ele>
        <time>2019-05-04T09:41:01Z</time>
      </trkpt>
      <trkpt lat="44.52304" lon="2.77298">
        <ele>343.81</ele>
        <time>2019-05-04T09:41:14Z</time>
      </trkpt>
      <trkpt lat="44.52337" lon="2.77216">
        <ele>343.33</ele>
        <time>2019-05-04T09:41:25Z</time>
      </trkpt>
      <trkpt lat="44.52351" lon="2.771">
        <ele>343.81</ele>
        <time>2019-05-04T09:41:39Z</time>
      </trkpt>
      <trkpt lat="44.52345" lon="2.77061">
        <ele>344.29</ele>
        <time>2019-05-04T09:41:44Z</time>
      </trkpt>
      <trkpt lat="44.52345" lon="2.77029">
        <ele>344.29</ele>
        <time>2019-05-04T09:41:48Z</time>
      </trkpt>
      <trkpt lat="44.52373" lon="2.76902">
        <ele>342.37</ele>
        <time>2019-05-04T09:42:03Z</time>
      </trkpt>
      <trkpt lat="44.524" lon="2.76777">
        <ele>340.92</ele>
        <time>2019-05-04T09:42:18Z</time>
      </trkpt>
      <trkpt lat="44.52415" lon="2.76707">
        <ele>340.44</ele>
        <time>2019-05-04T09:42:27Z</time>
      </trkpt>
      <trkpt lat="44.5242" lon="2.76685">
        <ele>339.48</ele>
        <time>2019-05-04T09:42:30Z</time>
      </trkpt>
      <trkpt lat="44.52431" lon="2.76628">
        <ele>338.52</ele>
        <time>2019-05-04T09:42:41Z</time>
      </trkpt>
      <trkpt lat="44.52436" lon="2.76619">
        <ele>339</ele>
        <time>2019-05-04T09:42:49Z</time>
      </trkpt>
      <trkpt lat="44.52436" lon="2.76619">
        <ele>338.52</ele>
        <time>2019-05-04T09:42:53Z</time>
      </trkpt>
      <trkpt lat="44.52436" lon="2.76616">
        <ele>338.52</ele>
        <time>2019-05-04T09:42:55Z</time>
      </trkpt>
      <trkpt lat="44.52436" lon="2.76611">
        <ele>338.52</ele>
        <time>2019-05-04T09:42:58Z</time>
      </trkpt>
      <trkpt lat="44.52437" lon="2.76605">
        <ele>339</ele>
        <time>2019-05-04T09:43:01Z</time>
      </trkpt>
      <trkpt lat="44.52443" lon="2.76581">
        <ele>339</ele>
        <time>2019-05-04T09:43:11Z</time>
      </trkpt>
      <trkpt lat="44.52445" lon="2.76539">
        <ele>339.96</ele>
        <time>2019-05-04T09:43:20Z</time>
      </trkpt>
      <trkpt lat="44.52445" lon="2.7652">
        <ele>339.48</ele>
        <time>2019-05-04T09:43:23Z</time>
      </trkpt>
      <trkpt lat="44.52441" lon="2.76502">
        <ele>339.96</ele>
        <time>2019-05-04T09:43:26Z</time>
      </trkpt>
      <trkpt lat="44.5244" lon="2.76489">
        <ele>339.48</ele>
        <time>2019-05-04T09:43:28Z</time>
      </trkpt>
      <trkpt lat="44.5244" lon="2.76463">
        <ele>340.44</ele>
        <time>2019-05-04T09:43:33Z</time>
      </trkpt>
      <trkpt lat="44.52399" lon="2.76423">
        <ele>341.41</ele>
        <time>2019-05-04T09:43:45Z</time>
      </trkpt>
      <trkpt lat="44.5237" lon="2.76401">
        <ele>341.41</ele>
        <time>2019-05-04T09:43:53Z</time>
      </trkpt>
      <trkpt lat="44.52369" lon="2.76396">
        <ele>341.89</ele>
        <time>2019-05-04T09:44:01Z</time>
      </trkpt>
      <trkpt lat="44.52367" lon="2.76393">
        <ele>341.89</ele>
        <time>2019-05-04T09:44:02Z</time>
      </trkpt>
      <trkpt lat="44.52333" lon="2.76363">
        <ele>342.37</ele>
        <time>2019-05-04T09:44:14Z</time>
      </trkpt>
      <trkpt lat="44.5231" lon="2.7634">
        <ele>342.85</ele>
        <time>2019-05-04T09:44:20Z</time>
      </trkpt>
      <trkpt lat="44.52302" lon="2.76331">
        <ele>343.33</ele>
        <time>2019-05-04T09:44:22Z</time>
      </trkpt>
      <trkpt lat="44.52265" lon="2.76298">
        <ele>343.33</ele>
        <time>2019-05-04T09:44:30Z</time>
      </trkpt>
      <trkpt lat="44.52235" lon="2.76271">
        <ele>342.85</ele>
        <time>2019-05-04T09:44:37Z</time>
      </trkpt>
      <trkpt lat="44.52223" lon="2.7625">
        <ele>342.37</ele>
        <time>2019-05-04T09:44:43Z</time>
      </trkpt>
      <trkpt lat="44.52253" lon="2.76192">
        <ele>340.92</ele>
        <time>2019-05-04T09:44:55Z</time>
      </trkpt>
      <trkpt lat="44.52257" lon="2.76186">
        <ele>340.92</ele>
        <time>2019-05-04T09:44:56Z</time>
      </trkpt>
      <trkpt lat="44.52267" lon="2.76168">
        <ele>340.92</ele>
        <time>2019-05-04T09:44:59Z</time>
      </trkpt>
      <trkpt lat="44.52322" lon="2.76061">
        <ele>339.48</ele>
        <time>2019-05-04T09:45:16Z</time>
      </trkpt>
      <trkpt lat="44.52338" lon="2.7603">
        <ele>339.48</ele>
        <time>2019-05-04T09:45:21Z</time>
      </trkpt>
      <trkpt lat="44.52355" lon="2.76001">
        <ele>339</ele>
        <time>2019-05-04T09:45:26Z</time>
      </trkpt>
      <trkpt lat="44.52371" lon="2.75968">
        <ele>338.52</ele>
        <time>2019-05-04T09:45:31Z</time>
      </trkpt>
      <trkpt lat="44.52413" lon="2.75865">
        <ele>337.56</ele>
        <time>2019-05-04T09:45:46Z</time>
      </trkpt>
      <trkpt lat="44.52441" lon="2.75798">
        <ele>337.56</ele>
        <time>2019-05-04T09:45:56Z</time>
      </trkpt>
      <trkpt lat="44.5245" lon="2.75778">
        <ele>337.08</ele>
        <time>2019-05-04T09:45:59Z</time>
      </trkpt>
      <trkpt lat="44.52452" lon="2.75772">
        <ele>337.56</ele>
        <time>2019-05-04T09:46:00Z</time>
      </trkpt>
      <trkpt lat="44.52477" lon="2.75722">
        <ele>337.08</ele>
        <time>2019-05-04T09:46:08Z</time>
      </trkpt>
      <trkpt lat="44.52481" lon="2.75717">
        <ele>337.56</ele>
        <time>2019-05-04T09:46:09Z</time>
      </trkpt>
      <trkpt lat="44.52489" lon="2.75707">
        <ele>337.08</ele>
        <time>2019-05-04T09:46:11Z</time>
      </trkpt>
      <trkpt lat="44.52494" lon="2.75704">
        <ele>337.08</ele>
        <time>2019-05-04T09:46:12Z</time>
      </trkpt>
      <trkpt lat="44.52499" lon="2.757">
        <ele>336.6</ele>
        <time>2019-05-04T09:46:13Z</time>
      </trkpt>
      <trkpt lat="44.5252" lon="2.75687">
        <ele>336.6</ele>
        <time>2019-05-04T09:46:17Z</time>
      </trkpt>
      <trkpt lat="44.52529" lon="2.75679">
        <ele>336.6</ele>
        <time>2019-05-04T09:46:19Z</time>
      </trkpt>
      <trkpt lat="44.52532" lon="2.75673">
        <ele>336.6</ele>
        <time>2019-05-04T09:46:20Z</time>
      </trkpt>
      <trkpt lat="44.52551" lon="2.75631">
        <ele>336.6</ele>
        <time>2019-05-04T09:46:27Z</time>
      </trkpt>
      <trkpt lat="44.52571" lon="2.75578">
        <ele>336.6</ele>
        <time>2019-05-04T09:46:36Z</time>
      </trkpt>
      <trkpt lat="44.52579" lon="2.75555">
        <ele>336.12</ele>
        <time>2019-05-04T09:46:40Z</time>
      </trkpt>
      <trkpt lat="44.52582" lon="2.75542">
        <ele>336.12</ele>
        <time>2019-05-04T09:46:42Z</time>
      </trkpt>
      <trkpt lat="44.52583" lon="2.75536">
        <ele>336.12</ele>
        <time>2019-05-04T09:46:43Z</time>
      </trkpt>
      <trkpt lat="44.52584" lon="2.7553">
        <ele>336.12</ele>
        <time>2019-05-04T09:46:44Z</time>
      </trkpt>
      <trkpt lat="44.52583" lon="2.75524">
        <ele>336.12</ele>
        <time>2019-05-04T09:46:45Z</time>
      </trkpt>
      <trkpt lat="44.5258" lon="2.7552">
        <ele>336.12</ele>
        <time>2019-05-04T09:46:46Z</time>
      </trkpt>
      <trkpt lat="44.52576" lon="2.75516">
        <ele>336.12</ele>
        <time>2019-05-04T09:46:47Z</time>
      </trkpt>
      <trkpt lat="44.52573" lon="2.75512">
        <ele>336.12</ele>
        <time>2019-05-04T09:46:48Z</time>
      </trkpt>
      <trkpt lat="44.52571" lon="2.75507">
        <ele>336.12</ele>
        <time>2019-05-04T09:46:49Z</time>
      </trkpt>
      <trkpt lat="44.52569" lon="2.75503">
        <ele>336.12</ele>
        <time>2019-05-04T09:46:50Z</time>
      </trkpt>
      <trkpt lat="44.52567" lon="2.75499">
        <ele>336.6</ele>
        <time>2019-05-04T09:46:51Z</time>
      </trkpt>
      <trkpt lat="44.52565" lon="2.75494">
        <ele>335.64</ele>
        <time>2019-05-04T09:47:00Z</time>
      </trkpt>
    </trkseg>
  </trk>
</gpx>